<?xml version="1.0" encoding="UTF-8"?>
<gpx version="1.1" creator="2bulu-scraper" xmlns="http://www.topografix.com/GPX/1/1">
  <metadata><name>:43龙贯山</name><desc>source: 2bulu.com trackId=76411662; exported 2026-09-01T14:54:09.026Z</desc>
    <bounds minlat="29.119373" minlon="105.246327" maxlat="29.132665" maxlon="105.261934"/>
    <link href="https://www.2bulu.com/track/t-NLgIS9uJkw7p%252FR2KBg5Tzw%253D%253D.htm"><text>2bulu 源页面</text></link>
  </metadata>
  <wpt lat="29.122114" lon="105.26039"><ele>383</ele><name>有恶狗子</name></wpt>
  <wpt lat="29.122619" lon="105.258179"><ele>418</ele><name>偶遇两只牛</name></wpt>
  <wpt lat="29.122838" lon="105.254477"><ele>440</ele><name>根本没有观景台</name></wpt>
  <wpt lat="29.121619" lon="105.251472"><ele>443</ele><name>板栗村党群服务中心</name></wpt>
  <wpt lat="29.122419" lon="105.249525"><ele>437</ele><name>纯正圣诞树</name></wpt>
  <wpt lat="29.122419" lon="105.247017"><ele>464</ele><name>好看，可惜天气不好</name></wpt>
  <wpt lat="29.12242" lon="105.24657"><ele>469</ele><name></name></wpt>
  <wpt lat="29.122467" lon="105.246564"><ele>469</ele><name></name></wpt>
  <wpt lat="29.123242" lon="105.24705"><ele>481</ele><name></name></wpt>
  <wpt lat="29.123242" lon="105.24705"><ele>481</ele><name></name></wpt>
  <wpt lat="29.123248" lon="105.247251"><ele>489</ele><name></name></wpt>
  <wpt lat="29.123248" lon="105.247251"><ele>489</ele><name></name></wpt>
  <wpt lat="29.12401" lon="105.24778"><ele>512</ele><name></name></wpt>
  <wpt lat="29.124009" lon="105.247493"><ele>502</ele><name>门口有恶狗，里边有厕所</name></wpt>
  <wpt lat="29.132524" lon="105.25032"><ele>457</ele><name>树上全是柚子</name></wpt>
  <wpt lat="29.13032" lon="105.255043"><ele>462</ele><name>晚上肯定吓人</name></wpt>
  <wpt lat="29.12816" lon="105.254667"><ele>442</ele><name>竹林</name></wpt>
  <wpt lat="29.124383" lon="105.257972"><ele>390</ele><name>有一片芦苇</name></wpt>
  <trk><name>:43龙贯山</name>
      <trkseg>
        <trkpt lat="29.121339" lon="105.261743"><ele>375.99384</ele><time>2025-12-19T19:30:49.000Z</time></trkpt>
        <trkpt lat="29.121372" lon="105.261705"><ele>375.92496</ele><time>2025-12-19T19:30:59.000Z</time></trkpt>
        <trkpt lat="29.121408" lon="105.261666"><ele>376.0892</ele><time>2025-12-19T19:31:05.000Z</time></trkpt>
        <trkpt lat="29.121443" lon="105.261625"><ele>376.22986</ele><time>2025-12-19T19:31:10.000Z</time></trkpt>
        <trkpt lat="29.121476" lon="105.261581"><ele>376.48926</ele><time>2025-12-19T19:31:16.000Z</time></trkpt>
        <trkpt lat="29.121514" lon="105.261543"><ele>376.5035</ele><time>2025-12-19T19:31:21.000Z</time></trkpt>
        <trkpt lat="29.121548" lon="105.2615"><ele>376.61285</ele><time>2025-12-19T19:31:26.000Z</time></trkpt>
        <trkpt lat="29.121579" lon="105.261462"><ele>376.53397</ele><time>2025-12-19T19:31:32.000Z</time></trkpt>
        <trkpt lat="29.121622" lon="105.261436"><ele>377.7517</ele><time>2025-12-19T19:31:37.000Z</time></trkpt>
        <trkpt lat="29.121666" lon="105.261412"><ele>376.80057</ele><time>2025-12-19T19:31:42.000Z</time></trkpt>
        <trkpt lat="29.121712" lon="105.261382"><ele>375.9717</ele><time>2025-12-19T19:31:48.000Z</time></trkpt>
        <trkpt lat="29.121772" lon="105.261377"><ele>376.87347</ele><time>2025-12-19T19:31:54.000Z</time></trkpt>
        <trkpt lat="29.121813" lon="105.261344"><ele>375.1796</ele><time>2025-12-19T19:32:01.000Z</time></trkpt>
        <trkpt lat="29.121851" lon="105.2613"><ele>374.95807</ele><time>2025-12-19T19:32:07.000Z</time></trkpt>
        <trkpt lat="29.121886" lon="105.261267"><ele>374.91214</ele><time>2025-12-19T19:32:13.000Z</time></trkpt>
        <trkpt lat="29.121903" lon="105.261214"><ele>375.0722</ele><time>2025-12-19T19:32:17.000Z</time></trkpt>
        <trkpt lat="29.121924" lon="105.261162"><ele>374.9686</ele><time>2025-12-19T19:32:22.000Z</time></trkpt>
        <trkpt lat="29.121942" lon="105.261111"><ele>375.5616</ele><time>2025-12-19T19:32:28.000Z</time></trkpt>
        <trkpt lat="29.121962" lon="105.261057"><ele>376.98242</ele><time>2025-12-19T19:32:34.000Z</time></trkpt>
        <trkpt lat="29.121977" lon="105.260997"><ele>377.38168</ele><time>2025-12-19T19:32:39.000Z</time></trkpt>
        <trkpt lat="29.121997" lon="105.260943"><ele>377.93295</ele><time>2025-12-19T19:32:45.000Z</time></trkpt>
        <trkpt lat="29.121989" lon="105.260875"><ele>378.5584</ele><time>2025-12-19T19:32:49.000Z</time></trkpt>
        <trkpt lat="29.121983" lon="105.260817"><ele>380.48434</ele><time>2025-12-19T19:32:55.000Z</time></trkpt>
        <trkpt lat="29.121987" lon="105.260756"><ele>381.67883</ele><time>2025-12-19T19:33:01.000Z</time></trkpt>
        <trkpt lat="29.121999" lon="105.260695"><ele>382.7501</ele><time>2025-12-19T19:33:07.000Z</time></trkpt>
        <trkpt lat="29.122018" lon="105.260648"><ele>383.1456</ele><time>2025-12-19T19:33:15.000Z</time></trkpt>
        <trkpt lat="29.122039" lon="105.260601"><ele>383.3158</ele><time>2025-12-19T19:33:27.000Z</time></trkpt>
        <trkpt lat="29.122084" lon="105.260602"><ele>381.8617</ele><time>2025-12-19T19:33:35.000Z</time></trkpt>
        <trkpt lat="29.122074" lon="105.260541"><ele>380.6916</ele><time>2025-12-19T19:33:42.000Z</time></trkpt>
        <trkpt lat="29.122071" lon="105.260484"><ele>382.22678</ele><time>2025-12-19T19:33:48.000Z</time></trkpt>
        <trkpt lat="29.122078" lon="105.260429"><ele>383.52686</ele><time>2025-12-19T19:33:58.000Z</time></trkpt>
        <trkpt lat="29.122114" lon="105.26039"><ele>382.91763</ele><time>2025-12-19T19:34:20.000Z</time></trkpt>
        <trkpt lat="29.122122" lon="105.260331"><ele>383.35007</ele><time>2025-12-19T19:34:26.000Z</time></trkpt>
        <trkpt lat="29.122134" lon="105.260272"><ele>383.7013</ele><time>2025-12-19T19:34:31.000Z</time></trkpt>
        <trkpt lat="29.122127" lon="105.260217"><ele>386.21875</ele><time>2025-12-19T19:34:41.000Z</time></trkpt>
        <trkpt lat="29.122154" lon="105.26016"><ele>387.33865</ele><time>2025-12-19T19:34:49.000Z</time></trkpt>
        <trkpt lat="29.122173" lon="105.26011"><ele>387.6446</ele><time>2025-12-19T19:34:55.000Z</time></trkpt>
        <trkpt lat="29.122206" lon="105.260074"><ele>388.2955</ele><time>2025-12-19T19:35:04.000Z</time></trkpt>
        <trkpt lat="29.12224" lon="105.260029"><ele>388.14572</ele><time>2025-12-19T19:35:14.000Z</time></trkpt>
        <trkpt lat="29.122256" lon="105.259976"><ele>388.8354</ele><time>2025-12-19T19:35:22.000Z</time></trkpt>
        <trkpt lat="29.122299" lon="105.259958"><ele>388.94696</ele><time>2025-12-19T19:35:28.000Z</time></trkpt>
        <trkpt lat="29.122345" lon="105.25995"><ele>388.3394</ele><time>2025-12-19T19:35:35.000Z</time></trkpt>
        <trkpt lat="29.122391" lon="105.259937"><ele>387.48663</ele><time>2025-12-19T19:35:45.000Z</time></trkpt>
        <trkpt lat="29.122442" lon="105.25994"><ele>386.47772</ele><time>2025-12-19T19:35:55.000Z</time></trkpt>
        <trkpt lat="29.122488" lon="105.25992"><ele>385.76987</ele><time>2025-12-19T19:36:01.000Z</time></trkpt>
        <trkpt lat="29.122534" lon="105.259928"><ele>385.1323</ele><time>2025-12-19T19:36:08.000Z</time></trkpt>
        <trkpt lat="29.122582" lon="105.259918"><ele>384.69965</ele><time>2025-12-19T19:36:17.000Z</time></trkpt>
        <trkpt lat="29.122628" lon="105.259898"><ele>384.82623</ele><time>2025-12-19T19:36:26.000Z</time></trkpt>
        <trkpt lat="29.122673" lon="105.259889"><ele>384.96844</ele><time>2025-12-19T19:36:34.000Z</time></trkpt>
        <trkpt lat="29.122717" lon="105.259865"><ele>385.00107</ele><time>2025-12-19T19:36:40.000Z</time></trkpt>
        <trkpt lat="29.122752" lon="105.259822"><ele>385.55432</ele><time>2025-12-19T19:36:49.000Z</time></trkpt>
        <trkpt lat="29.122769" lon="105.25977"><ele>386.3987</ele><time>2025-12-19T19:36:57.000Z</time></trkpt>
        <trkpt lat="29.122775" lon="105.259714"><ele>387.56592</ele><time>2025-12-19T19:37:05.000Z</time></trkpt>
        <trkpt lat="29.122784" lon="105.259663"><ele>388.30573</ele><time>2025-12-19T19:37:13.000Z</time></trkpt>
        <trkpt lat="29.122806" lon="105.259611"><ele>388.61945</ele><time>2025-12-19T19:37:28.000Z</time></trkpt>
        <trkpt lat="29.12282" lon="105.25956"><ele>388.89832</ele><time>2025-12-19T19:37:39.000Z</time></trkpt>
        <trkpt lat="29.122837" lon="105.259506"><ele>388.80643</ele><time>2025-12-19T19:37:49.000Z</time></trkpt>
        <trkpt lat="29.122835" lon="105.259444"><ele>389.44992</ele><time>2025-12-19T19:37:59.000Z</time></trkpt>
        <trkpt lat="29.122828" lon="105.259387"><ele>390.5383</ele><time>2025-12-19T19:38:09.000Z</time></trkpt>
        <trkpt lat="29.122848" lon="105.259339"><ele>391.10547</ele><time>2025-12-19T19:38:17.000Z</time></trkpt>
        <trkpt lat="29.122854" lon="105.259286"><ele>392.1617</ele><time>2025-12-19T19:38:25.000Z</time></trkpt>
        <trkpt lat="29.122866" lon="105.259232"><ele>392.51172</ele><time>2025-12-19T19:38:31.000Z</time></trkpt>
        <trkpt lat="29.122848" lon="105.259181"><ele>393.9425</ele><time>2025-12-19T19:38:43.000Z</time></trkpt>
        <trkpt lat="29.122801" lon="105.259176"><ele>395.10318</ele><time>2025-12-19T19:39:09.000Z</time></trkpt>
        <trkpt lat="29.122753" lon="105.259174"><ele>395.55603</ele><time>2025-12-19T19:39:18.000Z</time></trkpt>
        <trkpt lat="29.122706" lon="105.259169"><ele>395.81705</ele><time>2025-12-19T19:39:27.000Z</time></trkpt>
        <trkpt lat="29.122658" lon="105.259173"><ele>396.08932</ele><time>2025-12-19T19:39:35.000Z</time></trkpt>
        <trkpt lat="29.122621" lon="105.25914"><ele>396.72156</ele><time>2025-12-19T19:39:51.000Z</time></trkpt>
        <trkpt lat="29.122573" lon="105.259134"><ele>397.39978</ele><time>2025-12-19T19:40:07.000Z</time></trkpt>
        <trkpt lat="29.122526" lon="105.259118"><ele>397.6797</ele><time>2025-12-19T19:40:14.000Z</time></trkpt>
        <trkpt lat="29.122478" lon="105.259099"><ele>398.3533</ele><time>2025-12-19T19:40:22.000Z</time></trkpt>
        <trkpt lat="29.122429" lon="105.259096"><ele>399.12158</ele><time>2025-12-19T19:40:30.000Z</time></trkpt>
        <trkpt lat="29.122385" lon="105.259083"><ele>399.08087</ele><time>2025-12-19T19:40:37.000Z</time></trkpt>
        <trkpt lat="29.122335" lon="105.259058"><ele>399.63095</ele><time>2025-12-19T19:40:47.000Z</time></trkpt>
        <trkpt lat="29.122312" lon="105.259003"><ele>400.0746</ele><time>2025-12-19T19:40:54.000Z</time></trkpt>
        <trkpt lat="29.122282" lon="105.258963"><ele>400.55597</ele><time>2025-12-19T19:41:00.000Z</time></trkpt>
        <trkpt lat="29.122257" lon="105.258917"><ele>401.2933</ele><time>2025-12-19T19:41:07.000Z</time></trkpt>
        <trkpt lat="29.122223" lon="105.258882"><ele>401.5112</ele><time>2025-12-19T19:41:14.000Z</time></trkpt>
        <trkpt lat="29.122213" lon="105.258831"><ele>403.1502</ele><time>2025-12-19T19:41:32.000Z</time></trkpt>
        <trkpt lat="29.122255" lon="105.2588"><ele>405.61542</ele><time>2025-12-19T19:41:44.000Z</time></trkpt>
        <trkpt lat="29.122262" lon="105.258748"><ele>406.91614</ele><time>2025-12-19T19:41:53.000Z</time></trkpt>
        <trkpt lat="29.122305" lon="105.258715"><ele>408.12253</ele><time>2025-12-19T19:42:01.000Z</time></trkpt>
        <trkpt lat="29.122335" lon="105.258674"><ele>409.1655</ele><time>2025-12-19T19:42:13.000Z</time></trkpt>
        <trkpt lat="29.122356" lon="105.258627"><ele>410.40536</ele><time>2025-12-19T19:42:24.000Z</time></trkpt>
        <trkpt lat="29.122376" lon="105.25858"><ele>411.2494</ele><time>2025-12-19T19:42:30.000Z</time></trkpt>
        <trkpt lat="29.122415" lon="105.258555"><ele>411.96158</ele><time>2025-12-19T19:42:37.000Z</time></trkpt>
        <trkpt lat="29.122399" lon="105.258507"><ele>413.23367</ele><time>2025-12-19T19:42:44.000Z</time></trkpt>
        <trkpt lat="29.122427" lon="105.258464"><ele>414.48618</ele><time>2025-12-19T19:42:52.000Z</time></trkpt>
        <trkpt lat="29.122438" lon="105.258407"><ele>415.2807</ele><time>2025-12-19T19:43:00.000Z</time></trkpt>
        <trkpt lat="29.122462" lon="105.258362"><ele>416.4536</ele><time>2025-12-19T19:43:07.000Z</time></trkpt>
        <trkpt lat="29.122493" lon="105.258316"><ele>417.49283</ele><time>2025-12-19T19:43:16.000Z</time></trkpt>
        <trkpt lat="29.122532" lon="105.258283"><ele>418.1355</ele><time>2025-12-19T19:43:25.000Z</time></trkpt>
        <trkpt lat="29.122577" lon="105.258274"><ele>417.33148</ele><time>2025-12-19T19:43:33.000Z</time></trkpt>
        <trkpt lat="29.122598" lon="105.258226"><ele>416.64456</ele><time>2025-12-19T19:43:51.000Z</time></trkpt>
        <trkpt lat="29.122619" lon="105.258179"><ele>417.9206</ele><time>2025-12-19T19:43:59.000Z</time></trkpt>
        <trkpt lat="29.122642" lon="105.258135"><ele>418.7984</ele><time>2025-12-19T19:44:08.000Z</time></trkpt>
        <trkpt lat="29.122681" lon="105.258091"><ele>418.79657</ele><time>2025-12-19T19:44:12.000Z</time></trkpt>
        <trkpt lat="29.122724" lon="105.258054"><ele>418.64197</ele><time>2025-12-19T19:44:17.000Z</time></trkpt>
        <trkpt lat="29.122747" lon="105.258008"><ele>418.7696</ele><time>2025-12-19T19:44:25.000Z</time></trkpt>
        <trkpt lat="29.122755" lon="105.257955"><ele>418.79935</ele><time>2025-12-19T19:44:31.000Z</time></trkpt>
        <trkpt lat="29.122769" lon="105.257906"><ele>419.0108</ele><time>2025-12-19T19:44:36.000Z</time></trkpt>
        <trkpt lat="29.122791" lon="105.257859"><ele>419.58838</ele><time>2025-12-19T19:44:43.000Z</time></trkpt>
        <trkpt lat="29.122813" lon="105.257809"><ele>419.6819</ele><time>2025-12-19T19:44:50.000Z</time></trkpt>
        <trkpt lat="29.122838" lon="105.257763"><ele>420.19272</ele><time>2025-12-19T19:44:56.000Z</time></trkpt>
        <trkpt lat="29.122876" lon="105.257717"><ele>421.059</ele><time>2025-12-19T19:45:06.000Z</time></trkpt>
        <trkpt lat="29.12291" lon="105.257677"><ele>421.44376</ele><time>2025-12-19T19:45:14.000Z</time></trkpt>
        <trkpt lat="29.122954" lon="105.257661"><ele>421.57104</ele><time>2025-12-19T19:45:21.000Z</time></trkpt>
        <trkpt lat="29.122994" lon="105.257627"><ele>421.18787</ele><time>2025-12-19T19:45:31.000Z</time></trkpt>
        <trkpt lat="29.123028" lon="105.257585"><ele>421.1964</ele><time>2025-12-19T19:45:40.000Z</time></trkpt>
        <trkpt lat="29.123064" lon="105.257549"><ele>420.3806</ele><time>2025-12-19T19:45:48.000Z</time></trkpt>
        <trkpt lat="29.123105" lon="105.257521"><ele>420.08533</ele><time>2025-12-19T19:45:54.000Z</time></trkpt>
        <trkpt lat="29.123125" lon="105.257467"><ele>419.60977</ele><time>2025-12-19T19:46:01.000Z</time></trkpt>
        <trkpt lat="29.123148" lon="105.257422"><ele>420.6524</ele><time>2025-12-19T19:46:12.000Z</time></trkpt>
        <trkpt lat="29.123173" lon="105.257379"><ele>420.6028</ele><time>2025-12-19T19:46:27.000Z</time></trkpt>
        <trkpt lat="29.123172" lon="105.257325"><ele>420.98447</ele><time>2025-12-19T19:46:32.000Z</time></trkpt>
        <trkpt lat="29.123184" lon="105.257274"><ele>422.0706</ele><time>2025-12-19T19:46:37.000Z</time></trkpt>
        <trkpt lat="29.123202" lon="105.257218"><ele>423.54184</ele><time>2025-12-19T19:46:45.000Z</time></trkpt>
        <trkpt lat="29.123216" lon="105.257159"><ele>423.98248</ele><time>2025-12-19T19:46:52.000Z</time></trkpt>
        <trkpt lat="29.123256" lon="105.257122"><ele>423.7668</ele><time>2025-12-19T19:47:03.000Z</time></trkpt>
        <trkpt lat="29.123302" lon="105.257108"><ele>422.32886</ele><time>2025-12-19T19:47:12.000Z</time></trkpt>
        <trkpt lat="29.12333" lon="105.257062"><ele>421.24826</ele><time>2025-12-19T19:47:21.000Z</time></trkpt>
        <trkpt lat="29.123337" lon="105.257009"><ele>421.9923</ele><time>2025-12-19T19:47:28.000Z</time></trkpt>
        <trkpt lat="29.123341" lon="105.256948"><ele>423.35556</ele><time>2025-12-19T19:47:39.000Z</time></trkpt>
        <trkpt lat="29.123356" lon="105.256887"><ele>424.0029</ele><time>2025-12-19T19:47:49.000Z</time></trkpt>
        <trkpt lat="29.123365" lon="105.256834"><ele>424.5967</ele><time>2025-12-19T19:47:57.000Z</time></trkpt>
        <trkpt lat="29.123372" lon="105.25678"><ele>425.075</ele><time>2025-12-19T19:48:10.000Z</time></trkpt>
        <trkpt lat="29.123379" lon="105.256724"><ele>425.5313</ele><time>2025-12-19T19:48:17.000Z</time></trkpt>
        <trkpt lat="29.123385" lon="105.256669"><ele>426.12006</ele><time>2025-12-19T19:48:24.000Z</time></trkpt>
        <trkpt lat="29.123401" lon="105.256616"><ele>426.5751</ele><time>2025-12-19T19:48:32.000Z</time></trkpt>
        <trkpt lat="29.123416" lon="105.256563"><ele>426.34573</ele><time>2025-12-19T19:48:39.000Z</time></trkpt>
        <trkpt lat="29.123406" lon="105.256508"><ele>426.238</ele><time>2025-12-19T19:48:47.000Z</time></trkpt>
        <trkpt lat="29.123417" lon="105.256456"><ele>426.48978</ele><time>2025-12-19T19:48:53.000Z</time></trkpt>
        <trkpt lat="29.123444" lon="105.256407"><ele>426.04456</ele><time>2025-12-19T19:49:03.000Z</time></trkpt>
        <trkpt lat="29.123476" lon="105.256365"><ele>425.70383</ele><time>2025-12-19T19:49:09.000Z</time></trkpt>
        <trkpt lat="29.123496" lon="105.256315"><ele>425.0388</ele><time>2025-12-19T19:49:17.000Z</time></trkpt>
        <trkpt lat="29.123518" lon="105.256257"><ele>424.27594</ele><time>2025-12-19T19:49:26.000Z</time></trkpt>
        <trkpt lat="29.123531" lon="105.256206"><ele>423.8186</ele><time>2025-12-19T19:49:32.000Z</time></trkpt>
        <trkpt lat="29.123551" lon="105.256156"><ele>423.02823</ele><time>2025-12-19T19:49:41.000Z</time></trkpt>
        <trkpt lat="29.123565" lon="105.256098"><ele>422.9417</ele><time>2025-12-19T19:49:49.000Z</time></trkpt>
        <trkpt lat="29.123569" lon="105.256045"><ele>422.79144</ele><time>2025-12-19T19:49:55.000Z</time></trkpt>
        <trkpt lat="29.12357" lon="105.255988"><ele>423.25546</ele><time>2025-12-19T19:50:05.000Z</time></trkpt>
        <trkpt lat="29.123572" lon="105.255936"><ele>424.0017</ele><time>2025-12-19T19:50:17.000Z</time></trkpt>
        <trkpt lat="29.123567" lon="105.255881"><ele>424.34402</ele><time>2025-12-19T19:50:25.000Z</time></trkpt>
        <trkpt lat="29.12357" lon="105.255827"><ele>425.19208</ele><time>2025-12-19T19:50:34.000Z</time></trkpt>
        <trkpt lat="29.123565" lon="105.255772"><ele>425.752</ele><time>2025-12-19T19:50:41.000Z</time></trkpt>
        <trkpt lat="29.123562" lon="105.255721"><ele>426.7849</ele><time>2025-12-19T19:50:51.000Z</time></trkpt>
        <trkpt lat="29.123539" lon="105.25567"><ele>427.67264</ele><time>2025-12-19T19:51:01.000Z</time></trkpt>
        <trkpt lat="29.123521" lon="105.25562"><ele>428.2272</ele><time>2025-12-19T19:51:09.000Z</time></trkpt>
        <trkpt lat="29.1235" lon="105.255569"><ele>429.2949</ele><time>2025-12-19T19:51:18.000Z</time></trkpt>
        <trkpt lat="29.123462" lon="105.255532"><ele>430.26706</ele><time>2025-12-19T19:51:27.000Z</time></trkpt>
        <trkpt lat="29.123438" lon="105.25548"><ele>430.56674</ele><time>2025-12-19T19:51:36.000Z</time></trkpt>
        <trkpt lat="29.123413" lon="105.255435"><ele>430.80295</ele><time>2025-12-19T19:51:44.000Z</time></trkpt>
        <trkpt lat="29.123391" lon="105.255386"><ele>430.89114</ele><time>2025-12-19T19:51:53.000Z</time></trkpt>
        <trkpt lat="29.123367" lon="105.255334"><ele>431.04025</ele><time>2025-12-19T19:52:02.000Z</time></trkpt>
        <trkpt lat="29.123328" lon="105.255306"><ele>431.2031</ele><time>2025-12-19T19:52:11.000Z</time></trkpt>
        <trkpt lat="29.123294" lon="105.255268"><ele>431.574</ele><time>2025-12-19T19:52:22.000Z</time></trkpt>
        <trkpt lat="29.123273" lon="105.255212"><ele>432.29556</ele><time>2025-12-19T19:52:29.000Z</time></trkpt>
        <trkpt lat="29.123257" lon="105.255154"><ele>432.9532</ele><time>2025-12-19T19:52:35.000Z</time></trkpt>
        <trkpt lat="29.123238" lon="105.255106"><ele>433.24023</ele><time>2025-12-19T19:52:42.000Z</time></trkpt>
        <trkpt lat="29.123204" lon="105.255063"><ele>433.56354</ele><time>2025-12-19T19:52:50.000Z</time></trkpt>
        <trkpt lat="29.123168" lon="105.255027"><ele>434.4204</ele><time>2025-12-19T19:52:58.000Z</time></trkpt>
        <trkpt lat="29.123142" lon="105.254981"><ele>434.784</ele><time>2025-12-19T19:53:07.000Z</time></trkpt>
        <trkpt lat="29.123107" lon="105.254946"><ele>435.2573</ele><time>2025-12-19T19:53:15.000Z</time></trkpt>
        <trkpt lat="29.123078" lon="105.254901"><ele>436.20135</ele><time>2025-12-19T19:53:23.000Z</time></trkpt>
        <trkpt lat="29.123044" lon="105.254851"><ele>436.72464</ele><time>2025-12-19T19:53:31.000Z</time></trkpt>
        <trkpt lat="29.12301" lon="105.254809"><ele>437.03064</ele><time>2025-12-19T19:53:40.000Z</time></trkpt>
        <trkpt lat="29.12298" lon="105.254757"><ele>437.35892</ele><time>2025-12-19T19:53:50.000Z</time></trkpt>
        <trkpt lat="29.12296" lon="105.254706"><ele>437.67947</ele><time>2025-12-19T19:53:58.000Z</time></trkpt>
        <trkpt lat="29.122944" lon="105.254654"><ele>437.68393</ele><time>2025-12-19T19:54:04.000Z</time></trkpt>
        <trkpt lat="29.122919" lon="105.25461"><ele>437.8539</ele><time>2025-12-19T19:54:11.000Z</time></trkpt>
        <trkpt lat="29.122904" lon="105.254555"><ele>438.34152</ele><time>2025-12-19T19:54:19.000Z</time></trkpt>
        <trkpt lat="29.122889" lon="105.254502"><ele>438.92212</ele><time>2025-12-19T19:54:27.000Z</time></trkpt>
        <trkpt lat="29.12285" lon="105.254531"><ele>439.9938</ele><time>2025-12-19T19:54:49.000Z</time></trkpt>
        <trkpt lat="29.122838" lon="105.254477"><ele>440.37488</ele><time>2025-12-19T19:54:59.000Z</time></trkpt>
        <trkpt lat="29.122842" lon="105.254424"><ele>440.43906</ele><time>2025-12-19T19:55:07.000Z</time></trkpt>
        <trkpt lat="29.122824" lon="105.254373"><ele>440.626</ele><time>2025-12-19T19:55:16.000Z</time></trkpt>
        <trkpt lat="29.122807" lon="105.254322"><ele>440.7042</ele><time>2025-12-19T19:55:27.000Z</time></trkpt>
        <trkpt lat="29.122793" lon="105.254272"><ele>440.86728</ele><time>2025-12-19T19:55:43.000Z</time></trkpt>
        <trkpt lat="29.122772" lon="105.254226"><ele>441.0733</ele><time>2025-12-19T19:55:52.000Z</time></trkpt>
        <trkpt lat="29.122756" lon="105.254172"><ele>441.52988</ele><time>2025-12-19T19:56:03.000Z</time></trkpt>
        <trkpt lat="29.12274" lon="105.254121"><ele>441.9018</ele><time>2025-12-19T19:56:16.000Z</time></trkpt>
        <trkpt lat="29.122708" lon="105.254077"><ele>442.10437</ele><time>2025-12-19T19:56:30.000Z</time></trkpt>
        <trkpt lat="29.122705" lon="105.254018"><ele>442.11594</ele><time>2025-12-19T19:56:39.000Z</time></trkpt>
        <trkpt lat="29.122688" lon="105.25397"><ele>442.39655</ele><time>2025-12-19T19:56:47.000Z</time></trkpt>
        <trkpt lat="29.122675" lon="105.253918"><ele>442.54648</ele><time>2025-12-19T19:56:55.000Z</time></trkpt>
        <trkpt lat="29.122651" lon="105.25387"><ele>442.90988</ele><time>2025-12-19T19:57:05.000Z</time></trkpt>
        <trkpt lat="29.122633" lon="105.253819"><ele>443.17484</ele><time>2025-12-19T19:57:13.000Z</time></trkpt>
        <trkpt lat="29.122619" lon="105.253769"><ele>443.06177</ele><time>2025-12-19T19:57:20.000Z</time></trkpt>
        <trkpt lat="29.122596" lon="105.253718"><ele>443.3793</ele><time>2025-12-19T19:57:29.000Z</time></trkpt>
        <trkpt lat="29.122579" lon="105.253666"><ele>443.52884</ele><time>2025-12-19T19:57:38.000Z</time></trkpt>
        <trkpt lat="29.122553" lon="105.25362"><ele>443.74985</ele><time>2025-12-19T19:57:47.000Z</time></trkpt>
        <trkpt lat="29.122533" lon="105.253571"><ele>443.68958</ele><time>2025-12-19T19:57:53.000Z</time></trkpt>
        <trkpt lat="29.122514" lon="105.253521"><ele>443.51913</ele><time>2025-12-19T19:57:59.000Z</time></trkpt>
        <trkpt lat="29.122492" lon="105.25347"><ele>443.88803</ele><time>2025-12-19T19:58:07.000Z</time></trkpt>
        <trkpt lat="29.122474" lon="105.253422"><ele>443.73285</ele><time>2025-12-19T19:58:15.000Z</time></trkpt>
        <trkpt lat="29.122432" lon="105.253395"><ele>444.71304</ele><time>2025-12-19T19:58:22.000Z</time></trkpt>
        <trkpt lat="29.122401" lon="105.253356"><ele>445.34647</ele><time>2025-12-19T19:58:33.000Z</time></trkpt>
        <trkpt lat="29.12237" lon="105.253314"><ele>446.02094</ele><time>2025-12-19T19:58:41.000Z</time></trkpt>
        <trkpt lat="29.12234" lon="105.253272"><ele>446.1894</ele><time>2025-12-19T19:58:52.000Z</time></trkpt>
        <trkpt lat="29.122301" lon="105.25324"><ele>446.4401</ele><time>2025-12-19T19:59:02.000Z</time></trkpt>
        <trkpt lat="29.122271" lon="105.253203"><ele>446.73883</ele><time>2025-12-19T19:59:09.000Z</time></trkpt>
        <trkpt lat="29.122238" lon="105.253156"><ele>446.889</ele><time>2025-12-19T19:59:15.000Z</time></trkpt>
        <trkpt lat="29.122207" lon="105.253111"><ele>446.45972</ele><time>2025-12-19T19:59:24.000Z</time></trkpt>
        <trkpt lat="29.122162" lon="105.253088"><ele>446.59677</ele><time>2025-12-19T19:59:31.000Z</time></trkpt>
        <trkpt lat="29.122135" lon="105.253036"><ele>446.41782</ele><time>2025-12-19T19:59:39.000Z</time></trkpt>
        <trkpt lat="29.1221" lon="105.252996"><ele>445.9495</ele><time>2025-12-19T19:59:46.000Z</time></trkpt>
        <trkpt lat="29.122057" lon="105.25296"><ele>445.38144</ele><time>2025-12-19T19:59:57.000Z</time></trkpt>
        <trkpt lat="29.122013" lon="105.252931"><ele>445.12128</ele><time>2025-12-19T20:00:04.000Z</time></trkpt>
        <trkpt lat="29.12197" lon="105.252901"><ele>445.53107</ele><time>2025-12-19T20:00:11.000Z</time></trkpt>
        <trkpt lat="29.121926" lon="105.25288"><ele>445.0695</ele><time>2025-12-19T20:00:19.000Z</time></trkpt>
        <trkpt lat="29.121883" lon="105.252848"><ele>444.7518</ele><time>2025-12-19T20:00:28.000Z</time></trkpt>
        <trkpt lat="29.121842" lon="105.252818"><ele>444.22803</ele><time>2025-12-19T20:00:36.000Z</time></trkpt>
        <trkpt lat="29.1218" lon="105.252789"><ele>444.08777</ele><time>2025-12-19T20:00:43.000Z</time></trkpt>
        <trkpt lat="29.121784" lon="105.25274"><ele>444.11768</ele><time>2025-12-19T20:00:48.000Z</time></trkpt>
        <trkpt lat="29.121756" lon="105.252692"><ele>443.67743</ele><time>2025-12-19T20:00:55.000Z</time></trkpt>
        <trkpt lat="29.121724" lon="105.252655"><ele>443.13388</ele><time>2025-12-19T20:01:03.000Z</time></trkpt>
        <trkpt lat="29.121704" lon="105.252603"><ele>442.8555</ele><time>2025-12-19T20:01:10.000Z</time></trkpt>
        <trkpt lat="29.121702" lon="105.252551"><ele>443.0322</ele><time>2025-12-19T20:01:15.000Z</time></trkpt>
        <trkpt lat="29.121689" lon="105.252495"><ele>443.14374</ele><time>2025-12-19T20:01:21.000Z</time></trkpt>
        <trkpt lat="29.121684" lon="105.25244"><ele>443.18848</ele><time>2025-12-19T20:01:27.000Z</time></trkpt>
        <trkpt lat="29.121672" lon="105.252389"><ele>443.44116</ele><time>2025-12-19T20:01:33.000Z</time></trkpt>
        <trkpt lat="29.121653" lon="105.252335"><ele>443.589</ele><time>2025-12-19T20:01:40.000Z</time></trkpt>
        <trkpt lat="29.12163" lon="105.252284"><ele>443.21826</ele><time>2025-12-19T20:01:47.000Z</time></trkpt>
        <trkpt lat="29.121614" lon="105.252236"><ele>443.1326</ele><time>2025-12-19T20:01:54.000Z</time></trkpt>
        <trkpt lat="29.121593" lon="105.252184"><ele>443.49454</ele><time>2025-12-19T20:02:00.000Z</time></trkpt>
        <trkpt lat="29.121574" lon="105.252129"><ele>443.46518</ele><time>2025-12-19T20:02:09.000Z</time></trkpt>
        <trkpt lat="29.12155" lon="105.252084"><ele>443.53482</ele><time>2025-12-19T20:02:18.000Z</time></trkpt>
        <trkpt lat="29.121522" lon="105.252037"><ele>443.84277</ele><time>2025-12-19T20:02:25.000Z</time></trkpt>
        <trkpt lat="29.121515" lon="105.251972"><ele>444.28442</ele><time>2025-12-19T20:02:32.000Z</time></trkpt>
        <trkpt lat="29.121525" lon="105.251913"><ele>444.37506</ele><time>2025-12-19T20:02:38.000Z</time></trkpt>
        <trkpt lat="29.121523" lon="105.251859"><ele>444.46585</ele><time>2025-12-19T20:02:44.000Z</time></trkpt>
        <trkpt lat="29.121517" lon="105.251804"><ele>444.74033</ele><time>2025-12-19T20:02:50.000Z</time></trkpt>
        <trkpt lat="29.12152" lon="105.251747"><ele>444.29675</ele><time>2025-12-19T20:02:56.000Z</time></trkpt>
        <trkpt lat="29.121529" lon="105.251695"><ele>444.4685</ele><time>2025-12-19T20:03:02.000Z</time></trkpt>
        <trkpt lat="29.121537" lon="105.251638"><ele>443.99512</ele><time>2025-12-19T20:03:09.000Z</time></trkpt>
        <trkpt lat="29.121582" lon="105.251622"><ele>444.0917</ele><time>2025-12-19T20:03:17.000Z</time></trkpt>
        <trkpt lat="29.121594" lon="105.251571"><ele>443.84497</ele><time>2025-12-19T20:03:26.000Z</time></trkpt>
        <trkpt lat="29.121599" lon="105.251519"><ele>443.5334</ele><time>2025-12-19T20:03:37.000Z</time></trkpt>
        <trkpt lat="29.121619" lon="105.251472"><ele>443.35733</ele><time>2025-12-19T20:03:48.000Z</time></trkpt>
        <trkpt lat="29.12163" lon="105.251421"><ele>442.46442</ele><time>2025-12-19T20:03:57.000Z</time></trkpt>
        <trkpt lat="29.12162" lon="105.251367"><ele>442.04474</ele><time>2025-12-19T20:04:05.000Z</time></trkpt>
        <trkpt lat="29.12163" lon="105.251316"><ele>442.574</ele><time>2025-12-19T20:04:11.000Z</time></trkpt>
        <trkpt lat="29.121628" lon="105.251257"><ele>442.28827</ele><time>2025-12-19T20:04:17.000Z</time></trkpt>
        <trkpt lat="29.121639" lon="105.251202"><ele>442.35858</ele><time>2025-12-19T20:04:23.000Z</time></trkpt>
        <trkpt lat="29.121648" lon="105.251145"><ele>442.5084</ele><time>2025-12-19T20:04:30.000Z</time></trkpt>
        <trkpt lat="29.121662" lon="105.251092"><ele>442.35385</ele><time>2025-12-19T20:04:38.000Z</time></trkpt>
        <trkpt lat="29.121671" lon="105.251041"><ele>442.05957</ele><time>2025-12-19T20:04:45.000Z</time></trkpt>
        <trkpt lat="29.121686" lon="105.250987"><ele>441.61252</ele><time>2025-12-19T20:04:53.000Z</time></trkpt>
        <trkpt lat="29.121689" lon="105.250932"><ele>441.84946</ele><time>2025-12-19T20:05:01.000Z</time></trkpt>
        <trkpt lat="29.121684" lon="105.250874"><ele>441.90588</ele><time>2025-12-19T20:05:18.000Z</time></trkpt>
        <trkpt lat="29.121704" lon="105.250827"><ele>441.7793</ele><time>2025-12-19T20:05:25.000Z</time></trkpt>
        <trkpt lat="29.121711" lon="105.25077"><ele>441.22516</ele><time>2025-12-19T20:05:34.000Z</time></trkpt>
        <trkpt lat="29.1217" lon="105.250716"><ele>441.3303</ele><time>2025-12-19T20:05:44.000Z</time></trkpt>
        <trkpt lat="29.121703" lon="105.250662"><ele>441.64124</ele><time>2025-12-19T20:05:52.000Z</time></trkpt>
        <trkpt lat="29.121714" lon="105.250607"><ele>441.53625</ele><time>2025-12-19T20:06:00.000Z</time></trkpt>
        <trkpt lat="29.121726" lon="105.250547"><ele>440.94482</ele><time>2025-12-19T20:06:07.000Z</time></trkpt>
        <trkpt lat="29.121718" lon="105.250491"><ele>440.55447</ele><time>2025-12-19T20:06:13.000Z</time></trkpt>
        <trkpt lat="29.12174" lon="105.25044"><ele>440.13123</ele><time>2025-12-19T20:06:18.000Z</time></trkpt>
        <trkpt lat="29.121737" lon="105.250386"><ele>439.45358</ele><time>2025-12-19T20:06:25.000Z</time></trkpt>
        <trkpt lat="29.121747" lon="105.250334"><ele>440.18433</ele><time>2025-12-19T20:06:32.000Z</time></trkpt>
        <trkpt lat="29.121764" lon="105.250285"><ele>438.88547</ele><time>2025-12-19T20:06:39.000Z</time></trkpt>
        <trkpt lat="29.121781" lon="105.250233"><ele>439.23096</ele><time>2025-12-19T20:06:45.000Z</time></trkpt>
        <trkpt lat="29.121805" lon="105.25018"><ele>437.9449</ele><time>2025-12-19T20:06:51.000Z</time></trkpt>
        <trkpt lat="29.121831" lon="105.250131"><ele>437.1574</ele><time>2025-12-19T20:06:56.000Z</time></trkpt>
        <trkpt lat="29.121837" lon="105.250077"><ele>436.6636</ele><time>2025-12-19T20:07:03.000Z</time></trkpt>
        <trkpt lat="29.121849" lon="105.25002"><ele>436.78207</ele><time>2025-12-19T20:07:09.000Z</time></trkpt>
        <trkpt lat="29.121881" lon="105.249978"><ele>437.6209</ele><time>2025-12-19T20:07:16.000Z</time></trkpt>
        <trkpt lat="29.121919" lon="105.249939"><ele>436.52774</ele><time>2025-12-19T20:07:22.000Z</time></trkpt>
        <trkpt lat="29.121964" lon="105.249916"><ele>435.78644</ele><time>2025-12-19T20:07:28.000Z</time></trkpt>
        <trkpt lat="29.122003" lon="105.249888"><ele>435.3597</ele><time>2025-12-19T20:07:35.000Z</time></trkpt>
        <trkpt lat="29.122044" lon="105.249857"><ele>435.56436</ele><time>2025-12-19T20:07:40.000Z</time></trkpt>
        <trkpt lat="29.122076" lon="105.249817"><ele>435.04236</ele><time>2025-12-19T20:07:46.000Z</time></trkpt>
        <trkpt lat="29.122123" lon="105.249774"><ele>434.93924</ele><time>2025-12-19T20:07:54.000Z</time></trkpt>
        <trkpt lat="29.122163" lon="105.249748"><ele>436.65497</ele><time>2025-12-19T20:07:58.000Z</time></trkpt>
        <trkpt lat="29.122178" lon="105.249697"><ele>436.77032</ele><time>2025-12-19T20:08:04.000Z</time></trkpt>
        <trkpt lat="29.122217" lon="105.249668"><ele>437.0098</ele><time>2025-12-19T20:08:10.000Z</time></trkpt>
        <trkpt lat="29.12226" lon="105.24964"><ele>436.98108</ele><time>2025-12-19T20:08:17.000Z</time></trkpt>
        <trkpt lat="29.122306" lon="105.24962"><ele>436.62756</ele><time>2025-12-19T20:08:25.000Z</time></trkpt>
        <trkpt lat="29.12235" lon="105.249593"><ele>436.28406</ele><time>2025-12-19T20:08:32.000Z</time></trkpt>
        <trkpt lat="29.122393" lon="105.249571"><ele>436.57434</ele><time>2025-12-19T20:08:45.000Z</time></trkpt>
        <trkpt lat="29.122419" lon="105.249525"><ele>436.58386</ele><time>2025-12-19T20:08:58.000Z</time></trkpt>
        <trkpt lat="29.122439" lon="105.249473"><ele>436.62228</ele><time>2025-12-19T20:09:09.000Z</time></trkpt>
        <trkpt lat="29.122458" lon="105.249414"><ele>437.3854</ele><time>2025-12-19T20:09:15.000Z</time></trkpt>
        <trkpt lat="29.12248" lon="105.249368"><ele>438.06314</ele><time>2025-12-19T20:09:22.000Z</time></trkpt>
        <trkpt lat="29.1225" lon="105.249318"><ele>438.54254</ele><time>2025-12-19T20:09:29.000Z</time></trkpt>
        <trkpt lat="29.122521" lon="105.249271"><ele>438.44284</ele><time>2025-12-19T20:09:36.000Z</time></trkpt>
        <trkpt lat="29.122536" lon="105.249218"><ele>438.8795</ele><time>2025-12-19T20:09:44.000Z</time></trkpt>
        <trkpt lat="29.122549" lon="105.249158"><ele>439.2076</ele><time>2025-12-19T20:09:52.000Z</time></trkpt>
        <trkpt lat="29.122564" lon="105.249104"><ele>439.61334</ele><time>2025-12-19T20:10:00.000Z</time></trkpt>
        <trkpt lat="29.122577" lon="105.249045"><ele>440.6579</ele><time>2025-12-19T20:10:08.000Z</time></trkpt>
        <trkpt lat="29.122596" lon="105.248993"><ele>442.37476</ele><time>2025-12-19T20:10:17.000Z</time></trkpt>
        <trkpt lat="29.122613" lon="105.248936"><ele>443.78906</ele><time>2025-12-19T20:10:27.000Z</time></trkpt>
        <trkpt lat="29.122622" lon="105.248885"><ele>446.26022</ele><time>2025-12-19T20:10:39.000Z</time></trkpt>
        <trkpt lat="29.122633" lon="105.248826"><ele>447.32806</ele><time>2025-12-19T20:10:51.000Z</time></trkpt>
        <trkpt lat="29.12264" lon="105.24877"><ele>448.18945</ele><time>2025-12-19T20:11:02.000Z</time></trkpt>
        <trkpt lat="29.122642" lon="105.248718"><ele>449.49695</ele><time>2025-12-19T20:11:11.000Z</time></trkpt>
        <trkpt lat="29.122647" lon="105.248664"><ele>448.79102</ele><time>2025-12-19T20:11:17.000Z</time></trkpt>
        <trkpt lat="29.122633" lon="105.248603"><ele>449.59732</ele><time>2025-12-19T20:11:25.000Z</time></trkpt>
        <trkpt lat="29.122626" lon="105.248547"><ele>450.01355</ele><time>2025-12-19T20:11:32.000Z</time></trkpt>
        <trkpt lat="29.122623" lon="105.248487"><ele>449.97626</ele><time>2025-12-19T20:11:41.000Z</time></trkpt>
        <trkpt lat="29.122636" lon="105.24843"><ele>451.00726</ele><time>2025-12-19T20:11:49.000Z</time></trkpt>
        <trkpt lat="29.122657" lon="105.248384"><ele>451.06784</ele><time>2025-12-19T20:11:55.000Z</time></trkpt>
        <trkpt lat="29.122669" lon="105.248334"><ele>451.3309</ele><time>2025-12-19T20:12:01.000Z</time></trkpt>
        <trkpt lat="29.122685" lon="105.248284"><ele>451.06418</ele><time>2025-12-19T20:12:07.000Z</time></trkpt>
        <trkpt lat="29.122689" lon="105.248229"><ele>454.4273</ele><time>2025-12-19T20:12:13.000Z</time></trkpt>
        <trkpt lat="29.122689" lon="105.248177"><ele>453.60095</ele><time>2025-12-19T20:12:18.000Z</time></trkpt>
        <trkpt lat="29.122695" lon="105.248124"><ele>454.92062</ele><time>2025-12-19T20:12:24.000Z</time></trkpt>
        <trkpt lat="29.122686" lon="105.248068"><ele>456.62158</ele><time>2025-12-19T20:12:30.000Z</time></trkpt>
        <trkpt lat="29.122686" lon="105.248016"><ele>457.02383</ele><time>2025-12-19T20:12:36.000Z</time></trkpt>
        <trkpt lat="29.122683" lon="105.247964"><ele>457.4908</ele><time>2025-12-19T20:12:43.000Z</time></trkpt>
        <trkpt lat="29.122669" lon="105.247905"><ele>458.62576</ele><time>2025-12-19T20:12:51.000Z</time></trkpt>
        <trkpt lat="29.122653" lon="105.24785"><ele>458.07806</ele><time>2025-12-19T20:13:01.000Z</time></trkpt>
        <trkpt lat="29.122651" lon="105.247798"><ele>458.24005</ele><time>2025-12-19T20:13:25.000Z</time></trkpt>
        <trkpt lat="29.122652" lon="105.247739"><ele>458.43726</ele><time>2025-12-19T20:13:33.000Z</time></trkpt>
        <trkpt lat="29.122638" lon="105.247684"><ele>459.72772</ele><time>2025-12-19T20:13:38.000Z</time></trkpt>
        <trkpt lat="29.122613" lon="105.247619"><ele>461.77856</ele><time>2025-12-19T20:13:45.000Z</time></trkpt>
        <trkpt lat="29.122599" lon="105.247566"><ele>461.36905</ele><time>2025-12-19T20:13:54.000Z</time></trkpt>
        <trkpt lat="29.122595" lon="105.247514"><ele>462.12918</ele><time>2025-12-19T20:13:59.000Z</time></trkpt>
        <trkpt lat="29.122567" lon="105.247464"><ele>463.07986</ele><time>2025-12-19T20:14:04.000Z</time></trkpt>
        <trkpt lat="29.122552" lon="105.247415"><ele>463.4315</ele><time>2025-12-19T20:14:08.000Z</time></trkpt>
        <trkpt lat="29.122527" lon="105.247368"><ele>463.90323</ele><time>2025-12-19T20:14:13.000Z</time></trkpt>
        <trkpt lat="29.122498" lon="105.247325"><ele>462.6388</ele><time>2025-12-19T20:14:18.000Z</time></trkpt>
        <trkpt lat="29.122477" lon="105.247277"><ele>462.04343</ele><time>2025-12-19T20:14:24.000Z</time></trkpt>
        <trkpt lat="29.122454" lon="105.247222"><ele>461.87607</ele><time>2025-12-19T20:14:30.000Z</time></trkpt>
        <trkpt lat="29.122438" lon="105.247172"><ele>462.42438</ele><time>2025-12-19T20:14:35.000Z</time></trkpt>
        <trkpt lat="29.122435" lon="105.247119"><ele>463.1098</ele><time>2025-12-19T20:14:41.000Z</time></trkpt>
        <trkpt lat="29.122429" lon="105.247068"><ele>463.7313</ele><time>2025-12-19T20:15:03.000Z</time></trkpt>
        <trkpt lat="29.122419" lon="105.247017"><ele>464.31393</ele><time>2025-12-19T20:15:11.000Z</time></trkpt>
        <trkpt lat="29.122401" lon="105.246969"><ele>465.17786</ele><time>2025-12-19T20:15:18.000Z</time></trkpt>
        <trkpt lat="29.122388" lon="105.24692"><ele>464.75204</ele><time>2025-12-19T20:15:24.000Z</time></trkpt>
        <trkpt lat="29.122377" lon="105.246865"><ele>464.88507</ele><time>2025-12-19T20:15:32.000Z</time></trkpt>
        <trkpt lat="29.12236" lon="105.246816"><ele>465.72903</ele><time>2025-12-19T20:15:39.000Z</time></trkpt>
        <trkpt lat="29.122338" lon="105.246765"><ele>466.3084</ele><time>2025-12-19T20:15:45.000Z</time></trkpt>
        <trkpt lat="29.122309" lon="105.246723"><ele>467.01718</ele><time>2025-12-19T20:15:52.000Z</time></trkpt>
        <trkpt lat="29.122278" lon="105.246685"><ele>467.56625</ele><time>2025-12-19T20:15:59.000Z</time></trkpt>
        <trkpt lat="29.122249" lon="105.246639"><ele>468.44034</ele><time>2025-12-19T20:16:07.000Z</time></trkpt>
        <trkpt lat="29.122234" lon="105.246587"><ele>467.43893</ele><time>2025-12-19T20:16:13.000Z</time></trkpt>
        <trkpt lat="29.122216" lon="105.246535"><ele>465.8047</ele><time>2025-12-19T20:16:20.000Z</time></trkpt>
        <trkpt lat="29.122205" lon="105.246481"><ele>464.2557</ele><time>2025-12-19T20:16:26.000Z</time></trkpt>
        <trkpt lat="29.122166" lon="105.24644"><ele>462.84555</ele><time>2025-12-19T20:16:34.000Z</time></trkpt>
        <trkpt lat="29.122139" lon="105.246393"><ele>462.05655</ele><time>2025-12-19T20:16:42.000Z</time></trkpt>
        <trkpt lat="29.122124" lon="105.24634"><ele>461.12128</ele><time>2025-12-19T20:16:52.000Z</time></trkpt>
        <trkpt lat="29.122174" lon="105.246327"><ele>458.19022</ele><time>2025-12-19T20:17:09.000Z</time></trkpt>
        <trkpt lat="29.122217" lon="105.246347"><ele>457.94562</ele><time>2025-12-19T20:17:16.000Z</time></trkpt>
        <trkpt lat="29.122247" lon="105.246387"><ele>458.85477</ele><time>2025-12-19T20:17:21.000Z</time></trkpt>
        <trkpt lat="29.122279" lon="105.24643"><ele>461.00525</ele><time>2025-12-19T20:17:28.000Z</time></trkpt>
        <trkpt lat="29.122309" lon="105.246468"><ele>462.78583</ele><time>2025-12-19T20:17:36.000Z</time></trkpt>
        <trkpt lat="29.122352" lon="105.246492"><ele>464.78772</ele><time>2025-12-19T20:18:00.000Z</time></trkpt>
        <trkpt lat="29.122396" lon="105.246474"><ele>465.59088</ele><time>2025-12-19T20:18:20.000Z</time></trkpt>
        <trkpt lat="29.122435" lon="105.246508"><ele>465.3676</ele><time>2025-12-19T20:19:34.000Z</time></trkpt>
        <trkpt lat="29.122484" lon="105.246527"><ele>467.2954</ele><time>2025-12-19T20:19:42.000Z</time></trkpt>
        <trkpt lat="29.122509" lon="105.246573"><ele>468.774</ele><time>2025-12-19T20:20:22.000Z</time></trkpt>
        <trkpt lat="29.122489" lon="105.246522"><ele>470.1881</ele><time>2025-12-19T20:24:28.000Z</time></trkpt>
        <trkpt lat="29.122516" lon="105.246567"><ele>467.55072</ele><time>2025-12-19T20:25:22.000Z</time></trkpt>
        <trkpt lat="29.122467" lon="105.24658"><ele>468.71323</ele><time>2025-12-19T20:25:36.000Z</time></trkpt>
        <trkpt lat="29.12242" lon="105.24657"><ele>468.9494</ele><time>2025-12-19T20:25:47.000Z</time></trkpt>
        <trkpt lat="29.122467" lon="105.246564"><ele>468.92096</ele><time>2025-12-19T20:27:10.000Z</time></trkpt>
        <trkpt lat="29.122512" lon="105.246557"><ele>468.88934</ele><time>2025-12-19T20:28:10.000Z</time></trkpt>
        <trkpt lat="29.122551" lon="105.246531"><ele>467.76843</ele><time>2025-12-19T20:28:24.000Z</time></trkpt>
        <trkpt lat="29.122596" lon="105.246515"><ele>466.4116</ele><time>2025-12-19T20:28:41.000Z</time></trkpt>
        <trkpt lat="29.122611" lon="105.246572"><ele>467.2563</ele><time>2025-12-19T20:28:57.000Z</time></trkpt>
        <trkpt lat="29.122603" lon="105.246632"><ele>469.04065</ele><time>2025-12-19T20:29:09.000Z</time></trkpt>
        <trkpt lat="29.122558" lon="105.246606"><ele>470.09344</ele><time>2025-12-19T20:29:19.000Z</time></trkpt>
        <trkpt lat="29.122521" lon="105.246566"><ele>470.0237</ele><time>2025-12-19T20:30:20.000Z</time></trkpt>
        <trkpt lat="29.122475" lon="105.246588"><ele>470.9058</ele><time>2025-12-19T20:30:52.000Z</time></trkpt>
        <trkpt lat="29.12253" lon="105.246578"><ele>470.54483</ele><time>2025-12-19T20:32:19.000Z</time></trkpt>
        <trkpt lat="29.122481" lon="105.246567"><ele>469.69623</ele><time>2025-12-19T20:32:35.000Z</time></trkpt>
        <trkpt lat="29.122478" lon="105.246621"><ele>470.1161</ele><time>2025-12-19T20:33:26.000Z</time></trkpt>
        <trkpt lat="29.122451" lon="105.246672"><ele>471.863</ele><time>2025-12-19T20:34:59.000Z</time></trkpt>
        <trkpt lat="29.122467" lon="105.246624"><ele>471.76642</ele><time>2025-12-19T20:37:29.000Z</time></trkpt>
        <trkpt lat="29.1225" lon="105.246585"><ele>470.84564</ele><time>2025-12-19T20:38:27.000Z</time></trkpt>
        <trkpt lat="29.122458" lon="105.246617"><ele>469.84964</ele><time>2025-12-19T20:39:38.000Z</time></trkpt>
        <trkpt lat="29.122503" lon="105.246586"><ele>470.69415</ele><time>2025-12-19T20:40:08.000Z</time></trkpt>
        <trkpt lat="29.122459" lon="105.24661"><ele>470.58078</ele><time>2025-12-19T20:42:34.000Z</time></trkpt>
        <trkpt lat="29.122445" lon="105.246558"><ele>468.72147</ele><time>2025-12-19T20:43:09.000Z</time></trkpt>
        <trkpt lat="29.122452" lon="105.246668"><ele>469.37268</ele><time>2025-12-19T20:45:50.000Z</time></trkpt>
        <trkpt lat="29.122448" lon="105.246581"><ele>470.82877</ele><time>2025-12-19T20:58:43.000Z</time></trkpt>
        <trkpt lat="29.122462" lon="105.246631"><ele>470.22403</ele><time>2025-12-19T20:59:24.000Z</time></trkpt>
        <trkpt lat="29.122502" lon="105.246596"><ele>470.3752</ele><time>2025-12-19T20:59:46.000Z</time></trkpt>
        <trkpt lat="29.122546" lon="105.246571"><ele>468.49817</ele><time>2025-12-19T20:59:59.000Z</time></trkpt>
        <trkpt lat="29.122588" lon="105.246602"><ele>469.46463</ele><time>2025-12-19T21:00:10.000Z</time></trkpt>
        <trkpt lat="29.122635" lon="105.246624"><ele>470.6162</ele><time>2025-12-19T21:00:22.000Z</time></trkpt>
        <trkpt lat="29.122684" lon="105.246654"><ele>471.32596</ele><time>2025-12-19T21:00:34.000Z</time></trkpt>
        <trkpt lat="29.122717" lon="105.246699"><ele>472.79135</ele><time>2025-12-19T21:00:43.000Z</time></trkpt>
        <trkpt lat="29.122758" lon="105.246731"><ele>473.77612</ele><time>2025-12-19T21:00:54.000Z</time></trkpt>
        <trkpt lat="29.122799" lon="105.246764"><ele>474.71033</ele><time>2025-12-19T21:01:04.000Z</time></trkpt>
        <trkpt lat="29.122845" lon="105.246788"><ele>474.48276</ele><time>2025-12-19T21:01:12.000Z</time></trkpt>
        <trkpt lat="29.122887" lon="105.246816"><ele>474.55615</ele><time>2025-12-19T21:01:21.000Z</time></trkpt>
        <trkpt lat="29.122934" lon="105.24684"><ele>474.53058</ele><time>2025-12-19T21:01:34.000Z</time></trkpt>
        <trkpt lat="29.12297" lon="105.246882"><ele>475.2966</ele><time>2025-12-19T21:01:41.000Z</time></trkpt>
        <trkpt lat="29.122983" lon="105.246945"><ele>476.93567</ele><time>2025-12-19T21:01:50.000Z</time></trkpt>
        <trkpt lat="29.123002" lon="105.246992"><ele>478.12827</ele><time>2025-12-19T21:01:56.000Z</time></trkpt>
        <trkpt lat="29.123028" lon="105.247042"><ele>479.62268</ele><time>2025-12-19T21:02:06.000Z</time></trkpt>
        <trkpt lat="29.123074" lon="105.247059"><ele>480.74426</ele><time>2025-12-19T21:02:30.000Z</time></trkpt>
        <trkpt lat="29.123125" lon="105.247056"><ele>480.79654</ele><time>2025-12-19T21:02:36.000Z</time></trkpt>
        <trkpt lat="29.123171" lon="105.247053"><ele>480.56332</ele><time>2025-12-19T21:02:51.000Z</time></trkpt>
        <trkpt lat="29.123179" lon="105.247"><ele>480.3602</ele><time>2025-12-19T21:02:57.000Z</time></trkpt>
        <trkpt lat="29.123221" lon="105.247023"><ele>479.6518</ele><time>2025-12-19T21:03:23.000Z</time></trkpt>
        <trkpt lat="29.123233" lon="105.247088"><ele>481.35294</ele><time>2025-12-19T21:03:42.000Z</time></trkpt>
        <trkpt lat="29.123179" lon="105.247092"><ele>482.41248</ele><time>2025-12-19T21:03:48.000Z</time></trkpt>
        <trkpt lat="29.123196" lon="105.247038"><ele>481.83057</ele><time>2025-12-19T21:03:55.000Z</time></trkpt>
        <trkpt lat="29.123242" lon="105.24705"><ele>480.95584</ele><time>2025-12-19T21:04:16.000Z</time></trkpt>
        <trkpt lat="29.123271" lon="105.247009"><ele>479.84033</ele><time>2025-12-19T21:05:09.000Z</time></trkpt>
        <trkpt lat="29.123307" lon="105.246978"><ele>478.09015</ele><time>2025-12-19T21:05:27.000Z</time></trkpt>
        <trkpt lat="29.123334" lon="105.247023"><ele>478.89322</ele><time>2025-12-19T21:05:33.000Z</time></trkpt>
        <trkpt lat="29.123382" lon="105.247029"><ele>480.5221</ele><time>2025-12-19T21:05:46.000Z</time></trkpt>
        <trkpt lat="29.123414" lon="105.246992"><ele>480.15872</ele><time>2025-12-19T21:06:03.000Z</time></trkpt>
        <trkpt lat="29.123418" lon="105.246936"><ele>478.91644</ele><time>2025-12-19T21:06:21.000Z</time></trkpt>
        <trkpt lat="29.123468" lon="105.246962"><ele>477.07974</ele><time>2025-12-19T21:06:58.000Z</time></trkpt>
        <trkpt lat="29.123499" lon="105.246918"><ele>477.42865</ele><time>2025-12-19T21:07:13.000Z</time></trkpt>
        <trkpt lat="29.123549" lon="105.246904"><ele>475.89392</ele><time>2025-12-19T21:08:13.000Z</time></trkpt>
        <trkpt lat="29.123599" lon="105.246901"><ele>475.3297</ele><time>2025-12-19T21:08:34.000Z</time></trkpt>
        <trkpt lat="29.123635" lon="105.246949"><ele>477.28354</ele><time>2025-12-19T21:09:14.000Z</time></trkpt>
        <trkpt lat="29.123607" lon="105.246908"><ele>477.75073</ele><time>2025-12-19T21:10:28.000Z</time></trkpt>
        <trkpt lat="29.123565" lon="105.246867"><ele>475.79886</ele><time>2025-12-19T21:10:46.000Z</time></trkpt>
        <trkpt lat="29.123544" lon="105.246917"><ele>475.99014</ele><time>2025-12-19T21:10:57.000Z</time></trkpt>
        <trkpt lat="29.123499" lon="105.246905"><ele>476.66016</ele><time>2025-12-19T21:11:14.000Z</time></trkpt>
        <trkpt lat="29.123461" lon="105.246933"><ele>476.871</ele><time>2025-12-19T21:11:29.000Z</time></trkpt>
        <trkpt lat="29.123415" lon="105.24694"><ele>477.21225</ele><time>2025-12-19T21:11:49.000Z</time></trkpt>
        <trkpt lat="29.123378" lon="105.246984"><ele>478.5183</ele><time>2025-12-19T21:12:32.000Z</time></trkpt>
        <trkpt lat="29.123344" lon="105.247033"><ele>479.38687</ele><time>2025-12-19T21:12:39.000Z</time></trkpt>
        <trkpt lat="29.123292" lon="105.247042"><ele>481.78317</ele><time>2025-12-19T21:12:51.000Z</time></trkpt>
        <trkpt lat="29.123251" lon="105.247006"><ele>481.52634</ele><time>2025-12-19T21:12:54.000Z</time></trkpt>
        <trkpt lat="29.123205" lon="105.246991"><ele>480.3553</ele><time>2025-12-19T21:13:06.000Z</time></trkpt>
        <trkpt lat="29.123239" lon="105.247055"><ele>479.77786</ele><time>2025-12-19T21:14:14.000Z</time></trkpt>
        <trkpt lat="29.123212" lon="105.247012"><ele>480.11835</ele><time>2025-12-19T21:14:24.000Z</time></trkpt>
        <trkpt lat="29.123158" lon="105.247016"><ele>480.32095</ele><time>2025-12-19T21:14:34.000Z</time></trkpt>
        <trkpt lat="29.12311" lon="105.247002"><ele>479.7407</ele><time>2025-12-19T21:14:40.000Z</time></trkpt>
        <trkpt lat="29.123065" lon="105.247015"><ele>478.76947</ele><time>2025-12-19T21:14:53.000Z</time></trkpt>
        <trkpt lat="29.123035" lon="105.246974"><ele>477.81183</ele><time>2025-12-19T21:15:06.000Z</time></trkpt>
        <trkpt lat="29.122997" lon="105.246936"><ele>477.1288</ele><time>2025-12-19T21:15:18.000Z</time></trkpt>
        <trkpt lat="29.122949" lon="105.246942"><ele>477.58102</ele><time>2025-12-19T21:15:25.000Z</time></trkpt>
        <trkpt lat="29.122902" lon="105.246944"><ele>478.33948</ele><time>2025-12-19T21:15:33.000Z</time></trkpt>
        <trkpt lat="29.122857" lon="105.246958"><ele>478.3534</ele><time>2025-12-19T21:15:47.000Z</time></trkpt>
        <trkpt lat="29.122814" lon="105.246979"><ele>478.82516</ele><time>2025-12-19T21:15:55.000Z</time></trkpt>
        <trkpt lat="29.1228" lon="105.247039"><ele>479.75848</ele><time>2025-12-19T21:16:12.000Z</time></trkpt>
        <trkpt lat="29.122795" lon="105.247091"><ele>480.02362</ele><time>2025-12-19T21:16:27.000Z</time></trkpt>
        <trkpt lat="29.122821" lon="105.247133"><ele>480.47223</ele><time>2025-12-19T21:17:02.000Z</time></trkpt>
        <trkpt lat="29.122861" lon="105.247161"><ele>481.455</ele><time>2025-12-19T21:17:12.000Z</time></trkpt>
        <trkpt lat="29.122818" lon="105.247142"><ele>481.2163</ele><time>2025-12-19T21:17:37.000Z</time></trkpt>
        <trkpt lat="29.122853" lon="105.247182"><ele>480.99606</ele><time>2025-12-19T21:18:03.000Z</time></trkpt>
        <trkpt lat="29.122882" lon="105.247224"><ele>482.1632</ele><time>2025-12-19T21:18:22.000Z</time></trkpt>
        <trkpt lat="29.122926" lon="105.247205"><ele>483.24573</ele><time>2025-12-19T21:19:20.000Z</time></trkpt>
        <trkpt lat="29.122969" lon="105.247228"><ele>483.66592</ele><time>2025-12-19T21:19:34.000Z</time></trkpt>
        <trkpt lat="29.122983" lon="105.247282"><ele>483.54358</ele><time>2025-12-19T21:19:59.000Z</time></trkpt>
        <trkpt lat="29.123029" lon="105.247287"><ele>485.30426</ele><time>2025-12-19T21:20:13.000Z</time></trkpt>
        <trkpt lat="29.123076" lon="105.247287"><ele>485.8705</ele><time>2025-12-19T21:20:41.000Z</time></trkpt>
        <trkpt lat="29.123099" lon="105.247333"><ele>486.8493</ele><time>2025-12-19T21:21:10.000Z</time></trkpt>
        <trkpt lat="29.12314" lon="105.247305"><ele>488.39664</ele><time>2025-12-19T21:22:25.000Z</time></trkpt>
        <trkpt lat="29.123188" lon="105.247335"><ele>489.87076</ele><time>2025-12-19T21:22:37.000Z</time></trkpt>
        <trkpt lat="29.123164" lon="105.24729"><ele>488.63217</ele><time>2025-12-19T21:23:41.000Z</time></trkpt>
        <trkpt lat="29.12317" lon="105.247239"><ele>487.5064</ele><time>2025-12-19T21:24:18.000Z</time></trkpt>
        <trkpt lat="29.123204" lon="105.247202"><ele>486.48163</ele><time>2025-12-19T21:24:31.000Z</time></trkpt>
        <trkpt lat="29.123252" lon="105.247209"><ele>487.536</ele><time>2025-12-19T21:24:46.000Z</time></trkpt>
        <trkpt lat="29.123294" lon="105.247244"><ele>488.85107</ele><time>2025-12-19T21:24:53.000Z</time></trkpt>
        <trkpt lat="29.123248" lon="105.247251"><ele>489.07788</ele><time>2025-12-19T21:25:16.000Z</time></trkpt>
        <trkpt lat="29.123288" lon="105.247277"><ele>489.85934</ele><time>2025-12-19T21:25:52.000Z</time></trkpt>
        <trkpt lat="29.123335" lon="105.247283"><ele>491.13263</ele><time>2025-12-19T21:26:03.000Z</time></trkpt>
        <trkpt lat="29.123374" lon="105.247311"><ele>492.58987</ele><time>2025-12-19T21:26:16.000Z</time></trkpt>
        <trkpt lat="29.123388" lon="105.247361"><ele>494.01306</ele><time>2025-12-19T21:26:31.000Z</time></trkpt>
        <trkpt lat="29.123399" lon="105.247413"><ele>495.97644</ele><time>2025-12-19T21:27:04.000Z</time></trkpt>
        <trkpt lat="29.12344" lon="105.24744"><ele>497.64252</ele><time>2025-12-19T21:27:18.000Z</time></trkpt>
        <trkpt lat="29.123481" lon="105.247466"><ele>498.86774</ele><time>2025-12-19T21:27:30.000Z</time></trkpt>
        <trkpt lat="29.123527" lon="105.24747"><ele>499.19724</ele><time>2025-12-19T21:27:36.000Z</time></trkpt>
        <trkpt lat="29.123582" lon="105.247463"><ele>500.1043</ele><time>2025-12-19T21:27:44.000Z</time></trkpt>
        <trkpt lat="29.123631" lon="105.247466"><ele>500.5093</ele><time>2025-12-19T21:27:52.000Z</time></trkpt>
        <trkpt lat="29.123677" lon="105.247483"><ele>501.28442</ele><time>2025-12-19T21:28:00.000Z</time></trkpt>
        <trkpt lat="29.123722" lon="105.247493"><ele>501.584</ele><time>2025-12-19T21:28:06.000Z</time></trkpt>
        <trkpt lat="29.12377" lon="105.247508"><ele>501.74643</ele><time>2025-12-19T21:28:12.000Z</time></trkpt>
        <trkpt lat="29.123818" lon="105.247505"><ele>502.75018</ele><time>2025-12-19T21:28:18.000Z</time></trkpt>
        <trkpt lat="29.123778" lon="105.247535"><ele>504.74658</ele><time>2025-12-19T21:28:34.000Z</time></trkpt>
        <trkpt lat="29.12373" lon="105.247532"><ele>504.4737</ele><time>2025-12-19T21:28:40.000Z</time></trkpt>
        <trkpt lat="29.123682" lon="105.247533"><ele>503.81345</ele><time>2025-12-19T21:28:47.000Z</time></trkpt>
        <trkpt lat="29.123637" lon="105.247522"><ele>503.55</ele><time>2025-12-19T21:28:56.000Z</time></trkpt>
        <trkpt lat="29.123589" lon="105.247516"><ele>502.91956</ele><time>2025-12-19T21:29:03.000Z</time></trkpt>
        <trkpt lat="29.123537" lon="105.247525"><ele>502.53506</ele><time>2025-12-19T21:29:14.000Z</time></trkpt>
        <trkpt lat="29.123494" lon="105.247552"><ele>503.13498</ele><time>2025-12-19T21:29:21.000Z</time></trkpt>
        <trkpt lat="29.123486" lon="105.24761"><ele>504.74304</ele><time>2025-12-19T21:29:32.000Z</time></trkpt>
        <trkpt lat="29.123477" lon="105.247668"><ele>507.6897</ele><time>2025-12-19T21:29:41.000Z</time></trkpt>
        <trkpt lat="29.123447" lon="105.247714"><ele>510.3912</ele><time>2025-12-19T21:29:48.000Z</time></trkpt>
        <trkpt lat="29.123481" lon="105.247679"><ele>511.76437</ele><time>2025-12-19T21:30:18.000Z</time></trkpt>
        <trkpt lat="29.123489" lon="105.247625"><ele>509.71402</ele><time>2025-12-19T21:30:26.000Z</time></trkpt>
        <trkpt lat="29.12353" lon="105.247585"><ele>507.12646</ele><time>2025-12-19T21:30:34.000Z</time></trkpt>
        <trkpt lat="29.123579" lon="105.24757"><ele>505.45837</ele><time>2025-12-19T21:30:41.000Z</time></trkpt>
        <trkpt lat="29.12362" lon="105.247548"><ele>504.75473</ele><time>2025-12-19T21:30:48.000Z</time></trkpt>
        <trkpt lat="29.123669" lon="105.247543"><ele>503.9272</ele><time>2025-12-19T21:30:56.000Z</time></trkpt>
        <trkpt lat="29.123716" lon="105.247543"><ele>504.1605</ele><time>2025-12-19T21:31:09.000Z</time></trkpt>
        <trkpt lat="29.123761" lon="105.247536"><ele>503.6861</ele><time>2025-12-19T21:31:20.000Z</time></trkpt>
        <trkpt lat="29.123812" lon="105.247529"><ele>503.8824</ele><time>2025-12-19T21:31:29.000Z</time></trkpt>
        <trkpt lat="29.123857" lon="105.247505"><ele>503.21207</ele><time>2025-12-19T21:31:37.000Z</time></trkpt>
        <trkpt lat="29.123897" lon="105.247474"><ele>502.2864</ele><time>2025-12-19T21:31:46.000Z</time></trkpt>
        <trkpt lat="29.123937" lon="105.247442"><ele>500.9542</ele><time>2025-12-19T21:31:57.000Z</time></trkpt>
        <trkpt lat="29.123982" lon="105.247451"><ele>499.95245</ele><time>2025-12-19T21:32:12.000Z</time></trkpt>
        <trkpt lat="29.124023" lon="105.247479"><ele>499.70688</ele><time>2025-12-19T21:32:18.000Z</time></trkpt>
        <trkpt lat="29.124062" lon="105.247506"><ele>499.86212</ele><time>2025-12-19T21:32:23.000Z</time></trkpt>
        <trkpt lat="29.124092" lon="105.247558"><ele>501.0267</ele><time>2025-12-19T21:32:30.000Z</time></trkpt>
        <trkpt lat="29.124087" lon="105.247614"><ele>502.9267</ele><time>2025-12-19T21:32:38.000Z</time></trkpt>
        <trkpt lat="29.124044" lon="105.247649"><ele>504.73685</ele><time>2025-12-19T21:32:43.000Z</time></trkpt>
        <trkpt lat="29.124005" lon="105.247683"><ele>506.64417</ele><time>2025-12-19T21:32:47.000Z</time></trkpt>
        <trkpt lat="29.124004" lon="105.247737"><ele>509.47003</ele><time>2025-12-19T21:32:57.000Z</time></trkpt>
        <trkpt lat="29.124043" lon="105.247769"><ele>511.01328</ele><time>2025-12-19T21:33:02.000Z</time></trkpt>
        <trkpt lat="29.124032" lon="105.247819"><ele>511.39835</ele><time>2025-12-19T21:33:22.000Z</time></trkpt>
        <trkpt lat="29.124063" lon="105.247858"><ele>510.80862</ele><time>2025-12-19T21:33:32.000Z</time></trkpt>
        <trkpt lat="29.124044" lon="105.247916"><ele>510.04642</ele><time>2025-12-19T21:33:40.000Z</time></trkpt>
        <trkpt lat="29.124027" lon="105.247978"><ele>509.67886</ele><time>2025-12-19T21:33:51.000Z</time></trkpt>
        <trkpt lat="29.123961" lon="105.247902"><ele>509.96164</ele><time>2025-12-19T21:34:07.000Z</time></trkpt>
        <trkpt lat="29.123841" lon="105.247806"><ele>510.3661</ele><time>2025-12-19T21:34:12.000Z</time></trkpt>
        <trkpt lat="29.123985" lon="105.247645"><ele>521.14325</ele><time>2025-12-19T21:34:48.000Z</time></trkpt>
        <trkpt lat="29.124171" lon="105.247908"><ele>508.3534</ele><time>2025-12-19T21:36:02.000Z</time></trkpt>
        <trkpt lat="29.124044" lon="105.247843"><ele>509.8974</ele><time>2025-12-19T21:36:13.000Z</time></trkpt>
        <trkpt lat="29.124028" lon="105.247788"><ele>511.0923</ele><time>2025-12-19T21:36:20.000Z</time></trkpt>
        <trkpt lat="29.124052" lon="105.247729"><ele>511.182</ele><time>2025-12-19T21:36:25.000Z</time></trkpt>
        <trkpt lat="29.124047" lon="105.247676"><ele>510.33142</ele><time>2025-12-19T21:36:29.000Z</time></trkpt>
        <trkpt lat="29.124009" lon="105.247728"><ele>510.11447</ele><time>2025-12-19T21:36:33.000Z</time></trkpt>
        <trkpt lat="29.12401" lon="105.24778"><ele>511.94675</ele><time>2025-12-19T21:36:44.000Z</time></trkpt>
        <trkpt lat="29.124006" lon="105.247725"><ele>511.24933</ele><time>2025-12-19T21:36:51.000Z</time></trkpt>
        <trkpt lat="29.124008" lon="105.247668"><ele>510.21848</ele><time>2025-12-19T21:36:56.000Z</time></trkpt>
        <trkpt lat="29.124038" lon="105.247617"><ele>507.9152</ele><time>2025-12-19T21:37:01.000Z</time></trkpt>
        <trkpt lat="29.124061" lon="105.247569"><ele>505.55106</ele><time>2025-12-19T21:37:07.000Z</time></trkpt>
        <trkpt lat="29.124054" lon="105.247517"><ele>501.9622</ele><time>2025-12-19T21:37:24.000Z</time></trkpt>
        <trkpt lat="29.124009" lon="105.247493"><ele>502.05206</ele><time>2025-12-19T21:37:33.000Z</time></trkpt>
        <trkpt lat="29.124048" lon="105.247456"><ele>500.54962</ele><time>2025-12-19T21:37:44.000Z</time></trkpt>
        <trkpt lat="29.124073" lon="105.247413"><ele>499.22876</ele><time>2025-12-19T21:37:57.000Z</time></trkpt>
        <trkpt lat="29.124025" lon="105.247425"><ele>499.3676</ele><time>2025-12-19T21:38:25.000Z</time></trkpt>
        <trkpt lat="29.124013" lon="105.247374"><ele>498.2657</ele><time>2025-12-19T21:38:43.000Z</time></trkpt>
        <trkpt lat="29.124049" lon="105.247336"><ele>496.9142</ele><time>2025-12-19T21:38:56.000Z</time></trkpt>
        <trkpt lat="29.124096" lon="105.24732"><ele>495.52365</ele><time>2025-12-19T21:39:11.000Z</time></trkpt>
        <trkpt lat="29.12414" lon="105.247298"><ele>494.09457</ele><time>2025-12-19T21:39:25.000Z</time></trkpt>
        <trkpt lat="29.12418" lon="105.24727"><ele>493.09894</ele><time>2025-12-19T21:39:35.000Z</time></trkpt>
        <trkpt lat="29.124227" lon="105.247248"><ele>491.7612</ele><time>2025-12-19T21:39:44.000Z</time></trkpt>
        <trkpt lat="29.124276" lon="105.247251"><ele>490.32257</ele><time>2025-12-19T21:39:53.000Z</time></trkpt>
        <trkpt lat="29.124321" lon="105.247273"><ele>488.88922</ele><time>2025-12-19T21:40:08.000Z</time></trkpt>
        <trkpt lat="29.124358" lon="105.24731"><ele>488.88776</ele><time>2025-12-19T21:40:18.000Z</time></trkpt>
        <trkpt lat="29.12439" lon="105.247355"><ele>488.77866</ele><time>2025-12-19T21:40:30.000Z</time></trkpt>
        <trkpt lat="29.124421" lon="105.247426"><ele>489.40057</ele><time>2025-12-19T21:40:49.000Z</time></trkpt>
        <trkpt lat="29.124422" lon="105.247479"><ele>490.2204</ele><time>2025-12-19T21:41:02.000Z</time></trkpt>
        <trkpt lat="29.124455" lon="105.247518"><ele>490.3204</ele><time>2025-12-19T21:41:10.000Z</time></trkpt>
        <trkpt lat="29.124467" lon="105.247575"><ele>490.9984</ele><time>2025-12-19T21:41:22.000Z</time></trkpt>
        <trkpt lat="29.124491" lon="105.24762"><ele>491.02148</ele><time>2025-12-19T21:41:38.000Z</time></trkpt>
        <trkpt lat="29.124503" lon="105.247672"><ele>489.93195</ele><time>2025-12-19T21:41:47.000Z</time></trkpt>
        <trkpt lat="29.124537" lon="105.247707"><ele>488.80307</ele><time>2025-12-19T21:41:54.000Z</time></trkpt>
        <trkpt lat="29.124582" lon="105.247731"><ele>488.76254</ele><time>2025-12-19T21:41:59.000Z</time></trkpt>
        <trkpt lat="29.124617" lon="105.247771"><ele>487.44595</ele><time>2025-12-19T21:42:07.000Z</time></trkpt>
        <trkpt lat="29.124659" lon="105.247802"><ele>484.1659</ele><time>2025-12-19T21:42:22.000Z</time></trkpt>
        <trkpt lat="29.1247" lon="105.247838"><ele>483.06064</ele><time>2025-12-19T21:42:32.000Z</time></trkpt>
        <trkpt lat="29.124735" lon="105.247875"><ele>481.74158</ele><time>2025-12-19T21:42:46.000Z</time></trkpt>
        <trkpt lat="29.124753" lon="105.247926"><ele>480.60522</ele><time>2025-12-19T21:42:57.000Z</time></trkpt>
        <trkpt lat="29.124773" lon="105.247974"><ele>480.087</ele><time>2025-12-19T21:43:07.000Z</time></trkpt>
        <trkpt lat="29.124781" lon="105.248029"><ele>479.04218</ele><time>2025-12-19T21:43:46.000Z</time></trkpt>
        <trkpt lat="29.124795" lon="105.248079"><ele>478.5629</ele><time>2025-12-19T21:43:55.000Z</time></trkpt>
        <trkpt lat="29.124798" lon="105.248135"><ele>477.86926</ele><time>2025-12-19T21:44:03.000Z</time></trkpt>
        <trkpt lat="29.124808" lon="105.248189"><ele>477.1794</ele><time>2025-12-19T21:44:17.000Z</time></trkpt>
        <trkpt lat="29.124815" lon="105.248242"><ele>476.5834</ele><time>2025-12-19T21:44:26.000Z</time></trkpt>
        <trkpt lat="29.124824" lon="105.248294"><ele>475.45224</ele><time>2025-12-19T21:44:43.000Z</time></trkpt>
        <trkpt lat="29.124821" lon="105.248345"><ele>475.18405</ele><time>2025-12-19T21:44:55.000Z</time></trkpt>
        <trkpt lat="29.124839" lon="105.248393"><ele>473.369</ele><time>2025-12-19T21:45:09.000Z</time></trkpt>
        <trkpt lat="29.124873" lon="105.24836"><ele>472.1068</ele><time>2025-12-19T21:45:28.000Z</time></trkpt>
        <trkpt lat="29.124884" lon="105.248309"><ele>472.65326</ele><time>2025-12-19T21:45:34.000Z</time></trkpt>
        <trkpt lat="29.12489" lon="105.248249"><ele>473.10132</ele><time>2025-12-19T21:45:43.000Z</time></trkpt>
        <trkpt lat="29.12491" lon="105.248193"><ele>473.30753</ele><time>2025-12-19T21:45:50.000Z</time></trkpt>
        <trkpt lat="29.124939" lon="105.248145"><ele>472.95627</ele><time>2025-12-19T21:45:56.000Z</time></trkpt>
        <trkpt lat="29.124978" lon="105.248105"><ele>472.49838</ele><time>2025-12-19T21:46:02.000Z</time></trkpt>
        <trkpt lat="29.125016" lon="105.248062"><ele>471.51773</ele><time>2025-12-19T21:46:09.000Z</time></trkpt>
        <trkpt lat="29.125055" lon="105.248025"><ele>471.45776</ele><time>2025-12-19T21:46:16.000Z</time></trkpt>
        <trkpt lat="29.12509" lon="105.24799"><ele>471.06018</ele><time>2025-12-19T21:46:22.000Z</time></trkpt>
        <trkpt lat="29.125127" lon="105.247959"><ele>471.01678</ele><time>2025-12-19T21:46:30.000Z</time></trkpt>
        <trkpt lat="29.125156" lon="105.247913"><ele>470.91336</ele><time>2025-12-19T21:46:40.000Z</time></trkpt>
        <trkpt lat="29.125149" lon="105.247849"><ele>470.19183</ele><time>2025-12-19T21:46:46.000Z</time></trkpt>
        <trkpt lat="29.125168" lon="105.247799"><ele>469.7563</ele><time>2025-12-19T21:46:53.000Z</time></trkpt>
        <trkpt lat="29.12519" lon="105.24775"><ele>468.77628</ele><time>2025-12-19T21:47:00.000Z</time></trkpt>
        <trkpt lat="29.125196" lon="105.247694"><ele>468.00055</ele><time>2025-12-19T21:47:07.000Z</time></trkpt>
        <trkpt lat="29.125224" lon="105.247644"><ele>466.7368</ele><time>2025-12-19T21:47:14.000Z</time></trkpt>
        <trkpt lat="29.125255" lon="105.247605"><ele>465.63947</ele><time>2025-12-19T21:47:20.000Z</time></trkpt>
        <trkpt lat="29.125288" lon="105.247568"><ele>463.72943</ele><time>2025-12-19T21:47:29.000Z</time></trkpt>
        <trkpt lat="29.125317" lon="105.247525"><ele>463.41525</ele><time>2025-12-19T21:47:38.000Z</time></trkpt>
        <trkpt lat="29.12535" lon="105.24749"><ele>462.72537</ele><time>2025-12-19T21:47:48.000Z</time></trkpt>
        <trkpt lat="29.125373" lon="105.247443"><ele>461.72345</ele><time>2025-12-19T21:47:57.000Z</time></trkpt>
        <trkpt lat="29.125407" lon="105.247401"><ele>460.2494</ele><time>2025-12-19T21:48:08.000Z</time></trkpt>
        <trkpt lat="29.125447" lon="105.247368"><ele>459.4302</ele><time>2025-12-19T21:48:23.000Z</time></trkpt>
        <trkpt lat="29.125482" lon="105.247336"><ele>458.8551</ele><time>2025-12-19T21:48:32.000Z</time></trkpt>
        <trkpt lat="29.125524" lon="105.247316"><ele>457.9781</ele><time>2025-12-19T21:48:40.000Z</time></trkpt>
        <trkpt lat="29.125567" lon="105.247292"><ele>457.79932</ele><time>2025-12-19T21:48:50.000Z</time></trkpt>
        <trkpt lat="29.125614" lon="105.247267"><ele>456.86966</ele><time>2025-12-19T21:48:59.000Z</time></trkpt>
        <trkpt lat="29.125661" lon="105.247258"><ele>455.6098</ele><time>2025-12-19T21:49:06.000Z</time></trkpt>
        <trkpt lat="29.125712" lon="105.247253"><ele>454.48212</ele><time>2025-12-19T21:49:13.000Z</time></trkpt>
        <trkpt lat="29.12576" lon="105.247256"><ele>453.6057</ele><time>2025-12-19T21:49:20.000Z</time></trkpt>
        <trkpt lat="29.125805" lon="105.247267"><ele>453.25638</ele><time>2025-12-19T21:49:25.000Z</time></trkpt>
        <trkpt lat="29.12585" lon="105.247282"><ele>452.50952</ele><time>2025-12-19T21:49:34.000Z</time></trkpt>
        <trkpt lat="29.125891" lon="105.247307"><ele>453.04703</ele><time>2025-12-19T21:49:46.000Z</time></trkpt>
        <trkpt lat="29.125941" lon="105.247321"><ele>453.29745</ele><time>2025-12-19T21:49:54.000Z</time></trkpt>
        <trkpt lat="29.125998" lon="105.247322"><ele>453.467</ele><time>2025-12-19T21:49:59.000Z</time></trkpt>
        <trkpt lat="29.126042" lon="105.247301"><ele>453.20944</ele><time>2025-12-19T21:50:04.000Z</time></trkpt>
        <trkpt lat="29.126089" lon="105.247287"><ele>452.3618</ele><time>2025-12-19T21:50:12.000Z</time></trkpt>
        <trkpt lat="29.126134" lon="105.24727"><ele>451.6087</ele><time>2025-12-19T21:50:22.000Z</time></trkpt>
        <trkpt lat="29.126183" lon="105.24726"><ele>450.74112</ele><time>2025-12-19T21:50:28.000Z</time></trkpt>
        <trkpt lat="29.126229" lon="105.247254"><ele>450.10565</ele><time>2025-12-19T21:50:34.000Z</time></trkpt>
        <trkpt lat="29.126275" lon="105.24726"><ele>449.07068</ele><time>2025-12-19T21:50:50.000Z</time></trkpt>
        <trkpt lat="29.126319" lon="105.247282"><ele>449.03098</ele><time>2025-12-19T21:51:01.000Z</time></trkpt>
        <trkpt lat="29.126367" lon="105.247308"><ele>449.24738</ele><time>2025-12-19T21:51:13.000Z</time></trkpt>
        <trkpt lat="29.126415" lon="105.247313"><ele>449.1645</ele><time>2025-12-19T21:51:21.000Z</time></trkpt>
        <trkpt lat="29.126465" lon="105.247318"><ele>448.54102</ele><time>2025-12-19T21:51:30.000Z</time></trkpt>
        <trkpt lat="29.126511" lon="105.247317"><ele>447.81357</ele><time>2025-12-19T21:51:37.000Z</time></trkpt>
        <trkpt lat="29.126556" lon="105.247311"><ele>446.96576</ele><time>2025-12-19T21:51:48.000Z</time></trkpt>
        <trkpt lat="29.126602" lon="105.247314"><ele>446.27582</ele><time>2025-12-19T21:51:57.000Z</time></trkpt>
        <trkpt lat="29.126652" lon="105.247312"><ele>445.99573</ele><time>2025-12-19T21:52:11.000Z</time></trkpt>
        <trkpt lat="29.126683" lon="105.247274"><ele>444.38596</ele><time>2025-12-19T21:52:20.000Z</time></trkpt>
        <trkpt lat="29.12673" lon="105.24726"><ele>445.08167</ele><time>2025-12-19T21:52:54.000Z</time></trkpt>
        <trkpt lat="29.126775" lon="105.247254"><ele>446.16608</ele><time>2025-12-19T21:53:04.000Z</time></trkpt>
        <trkpt lat="29.126809" lon="105.247219"><ele>446.6404</ele><time>2025-12-19T21:53:11.000Z</time></trkpt>
        <trkpt lat="29.126819" lon="105.247167"><ele>446.10767</ele><time>2025-12-19T21:53:19.000Z</time></trkpt>
        <trkpt lat="29.126847" lon="105.247126"><ele>445.4201</ele><time>2025-12-19T21:53:28.000Z</time></trkpt>
        <trkpt lat="29.126877" lon="105.247087"><ele>444.92682</ele><time>2025-12-19T21:53:40.000Z</time></trkpt>
        <trkpt lat="29.126912" lon="105.247045"><ele>444.53867</ele><time>2025-12-19T21:53:51.000Z</time></trkpt>
        <trkpt lat="29.126941" lon="105.247003"><ele>444.28998</ele><time>2025-12-19T21:53:59.000Z</time></trkpt>
        <trkpt lat="29.126984" lon="105.246981"><ele>443.66708</ele><time>2025-12-19T21:54:09.000Z</time></trkpt>
        <trkpt lat="29.127024" lon="105.246946"><ele>443.123</ele><time>2025-12-19T21:54:19.000Z</time></trkpt>
        <trkpt lat="29.127059" lon="105.24691"><ele>441.97815</ele><time>2025-12-19T21:54:30.000Z</time></trkpt>
        <trkpt lat="29.127103" lon="105.246886"><ele>441.64896</ele><time>2025-12-19T21:54:38.000Z</time></trkpt>
        <trkpt lat="29.127141" lon="105.246856"><ele>441.00357</ele><time>2025-12-19T21:54:49.000Z</time></trkpt>
        <trkpt lat="29.127179" lon="105.246823"><ele>440.44638</ele><time>2025-12-19T21:54:58.000Z</time></trkpt>
        <trkpt lat="29.127214" lon="105.246786"><ele>439.3123</ele><time>2025-12-19T21:55:07.000Z</time></trkpt>
        <trkpt lat="29.127254" lon="105.246759"><ele>438.24988</ele><time>2025-12-19T21:55:21.000Z</time></trkpt>
        <trkpt lat="29.1273" lon="105.246741"><ele>436.96768</ele><time>2025-12-19T21:55:33.000Z</time></trkpt>
        <trkpt lat="29.12735" lon="105.246752"><ele>436.38577</ele><time>2025-12-19T21:55:47.000Z</time></trkpt>
        <trkpt lat="29.127389" lon="105.246789"><ele>436.83893</ele><time>2025-12-19T21:55:56.000Z</time></trkpt>
        <trkpt lat="29.127414" lon="105.246841"><ele>437.36606</ele><time>2025-12-19T21:56:09.000Z</time></trkpt>
        <trkpt lat="29.127443" lon="105.246889"><ele>437.73032</ele><time>2025-12-19T21:56:17.000Z</time></trkpt>
        <trkpt lat="29.127463" lon="105.246939"><ele>438.70486</ele><time>2025-12-19T21:56:24.000Z</time></trkpt>
        <trkpt lat="29.127483" lon="105.246987"><ele>439.71567</ele><time>2025-12-19T21:56:30.000Z</time></trkpt>
        <trkpt lat="29.127506" lon="105.247036"><ele>441.34427</ele><time>2025-12-19T21:56:39.000Z</time></trkpt>
        <trkpt lat="29.127555" lon="105.247053"><ele>441.4601</ele><time>2025-12-19T21:56:48.000Z</time></trkpt>
        <trkpt lat="29.127601" lon="105.247065"><ele>441.16882</ele><time>2025-12-19T21:56:57.000Z</time></trkpt>
        <trkpt lat="29.127644" lon="105.247079"><ele>440.2546</ele><time>2025-12-19T21:57:05.000Z</time></trkpt>
        <trkpt lat="29.127683" lon="105.247112"><ele>440.06918</ele><time>2025-12-19T21:57:16.000Z</time></trkpt>
        <trkpt lat="29.127723" lon="105.247148"><ele>440.0425</ele><time>2025-12-19T21:57:27.000Z</time></trkpt>
        <trkpt lat="29.127766" lon="105.247181"><ele>440.2206</ele><time>2025-12-19T21:57:36.000Z</time></trkpt>
        <trkpt lat="29.127812" lon="105.247207"><ele>440.29068</ele><time>2025-12-19T21:57:44.000Z</time></trkpt>
        <trkpt lat="29.127854" lon="105.247235"><ele>440.62253</ele><time>2025-12-19T21:57:52.000Z</time></trkpt>
        <trkpt lat="29.127901" lon="105.24724"><ele>440.91476</ele><time>2025-12-19T21:58:00.000Z</time></trkpt>
        <trkpt lat="29.127946" lon="105.247262"><ele>440.9632</ele><time>2025-12-19T21:58:07.000Z</time></trkpt>
        <trkpt lat="29.127997" lon="105.247273"><ele>441.17288</ele><time>2025-12-19T21:58:18.000Z</time></trkpt>
        <trkpt lat="29.128043" lon="105.247297"><ele>441.58755</ele><time>2025-12-19T21:58:29.000Z</time></trkpt>
        <trkpt lat="29.128089" lon="105.247298"><ele>442.07623</ele><time>2025-12-19T21:58:36.000Z</time></trkpt>
        <trkpt lat="29.128136" lon="105.247301"><ele>441.8665</ele><time>2025-12-19T21:58:44.000Z</time></trkpt>
        <trkpt lat="29.128181" lon="105.247309"><ele>442.48224</ele><time>2025-12-19T21:58:57.000Z</time></trkpt>
        <trkpt lat="29.128225" lon="105.247329"><ele>443.19562</ele><time>2025-12-19T21:59:10.000Z</time></trkpt>
        <trkpt lat="29.128268" lon="105.247344"><ele>443.81393</ele><time>2025-12-19T21:59:21.000Z</time></trkpt>
        <trkpt lat="29.128317" lon="105.247331"><ele>444.09567</ele><time>2025-12-19T21:59:31.000Z</time></trkpt>
        <trkpt lat="29.128367" lon="105.247311"><ele>443.40717</ele><time>2025-12-19T21:59:42.000Z</time></trkpt>
        <trkpt lat="29.12841" lon="105.24729"><ele>443.02432</ele><time>2025-12-19T21:59:48.000Z</time></trkpt>
        <trkpt lat="29.128459" lon="105.247281"><ele>441.86725</ele><time>2025-12-19T21:59:57.000Z</time></trkpt>
        <trkpt lat="29.128503" lon="105.247265"><ele>441.4698</ele><time>2025-12-19T22:00:04.000Z</time></trkpt>
        <trkpt lat="29.128549" lon="105.247255"><ele>441.16</ele><time>2025-12-19T22:00:12.000Z</time></trkpt>
        <trkpt lat="29.128598" lon="105.247246"><ele>440.82855</ele><time>2025-12-19T22:00:20.000Z</time></trkpt>
        <trkpt lat="29.128647" lon="105.247247"><ele>440.20358</ele><time>2025-12-19T22:00:28.000Z</time></trkpt>
        <trkpt lat="29.128693" lon="105.247255"><ele>439.87582</ele><time>2025-12-19T22:00:35.000Z</time></trkpt>
        <trkpt lat="29.128738" lon="105.247271"><ele>438.83615</ele><time>2025-12-19T22:00:43.000Z</time></trkpt>
        <trkpt lat="29.128775" lon="105.247303"><ele>438.73962</ele><time>2025-12-19T22:00:51.000Z</time></trkpt>
        <trkpt lat="29.128812" lon="105.247333"><ele>438.5188</ele><time>2025-12-19T22:01:01.000Z</time></trkpt>
        <trkpt lat="29.12886" lon="105.247339"><ele>437.9581</ele><time>2025-12-19T22:01:53.000Z</time></trkpt>
        <trkpt lat="29.128903" lon="105.24736"><ele>437.23328</ele><time>2025-12-19T22:02:07.000Z</time></trkpt>
        <trkpt lat="29.128927" lon="105.247406"><ele>438.4637</ele><time>2025-12-19T22:02:19.000Z</time></trkpt>
        <trkpt lat="29.128968" lon="105.24743"><ele>439.14908</ele><time>2025-12-19T22:02:29.000Z</time></trkpt>
        <trkpt lat="29.129001" lon="105.247469"><ele>440.10156</ele><time>2025-12-19T22:02:39.000Z</time></trkpt>
        <trkpt lat="29.129043" lon="105.24749"><ele>440.70697</ele><time>2025-12-19T22:02:46.000Z</time></trkpt>
        <trkpt lat="29.129086" lon="105.247506"><ele>440.32306</ele><time>2025-12-19T22:02:54.000Z</time></trkpt>
        <trkpt lat="29.129133" lon="105.247513"><ele>439.84546</ele><time>2025-12-19T22:03:03.000Z</time></trkpt>
        <trkpt lat="29.129181" lon="105.247525"><ele>439.26367</ele><time>2025-12-19T22:03:13.000Z</time></trkpt>
        <trkpt lat="29.129226" lon="105.247538"><ele>438.53363</ele><time>2025-12-19T22:03:22.000Z</time></trkpt>
        <trkpt lat="29.129273" lon="105.247544"><ele>437.5958</ele><time>2025-12-19T22:03:34.000Z</time></trkpt>
        <trkpt lat="29.129318" lon="105.24755"><ele>436.41</ele><time>2025-12-19T22:03:45.000Z</time></trkpt>
        <trkpt lat="29.129365" lon="105.247535"><ele>435.4777</ele><time>2025-12-19T22:03:56.000Z</time></trkpt>
        <trkpt lat="29.129414" lon="105.247517"><ele>434.88705</ele><time>2025-12-19T22:04:05.000Z</time></trkpt>
        <trkpt lat="29.129462" lon="105.247519"><ele>434.1575</ele><time>2025-12-19T22:04:15.000Z</time></trkpt>
        <trkpt lat="29.129507" lon="105.247533"><ele>432.6078</ele><time>2025-12-19T22:04:31.000Z</time></trkpt>
        <trkpt lat="29.129554" lon="105.247513"><ele>431.15604</ele><time>2025-12-19T22:05:25.000Z</time></trkpt>
        <trkpt lat="29.129594" lon="105.247488"><ele>430.33658</ele><time>2025-12-19T22:05:32.000Z</time></trkpt>
        <trkpt lat="29.129634" lon="105.247459"><ele>429.87714</ele><time>2025-12-19T22:05:39.000Z</time></trkpt>
        <trkpt lat="29.129678" lon="105.247429"><ele>429.65793</ele><time>2025-12-19T22:05:46.000Z</time></trkpt>
        <trkpt lat="29.129714" lon="105.247392"><ele>429.39905</ele><time>2025-12-19T22:05:54.000Z</time></trkpt>
        <trkpt lat="29.129753" lon="105.247358"><ele>428.621</ele><time>2025-12-19T22:06:03.000Z</time></trkpt>
        <trkpt lat="29.129779" lon="105.247309"><ele>428.70477</ele><time>2025-12-19T22:06:12.000Z</time></trkpt>
        <trkpt lat="29.129816" lon="105.24727"><ele>428.6739</ele><time>2025-12-19T22:06:20.000Z</time></trkpt>
        <trkpt lat="29.12986" lon="105.247243"><ele>428.31686</ele><time>2025-12-19T22:06:28.000Z</time></trkpt>
        <trkpt lat="29.129897" lon="105.247211"><ele>429.30493</ele><time>2025-12-19T22:06:37.000Z</time></trkpt>
        <trkpt lat="29.129921" lon="105.247161"><ele>427.54233</ele><time>2025-12-19T22:06:50.000Z</time></trkpt>
        <trkpt lat="29.129939" lon="105.247112"><ele>427.5087</ele><time>2025-12-19T22:06:58.000Z</time></trkpt>
        <trkpt lat="29.129957" lon="105.247058"><ele>427.14917</ele><time>2025-12-19T22:07:06.000Z</time></trkpt>
        <trkpt lat="29.129967" lon="105.247006"><ele>427.17975</ele><time>2025-12-19T22:07:13.000Z</time></trkpt>
        <trkpt lat="29.129975" lon="105.246954"><ele>427.52298</ele><time>2025-12-19T22:07:20.000Z</time></trkpt>
        <trkpt lat="29.129997" lon="105.246904"><ele>428.03305</ele><time>2025-12-19T22:07:34.000Z</time></trkpt>
        <trkpt lat="29.130029" lon="105.246863"><ele>428.31082</ele><time>2025-12-19T22:07:40.000Z</time></trkpt>
        <trkpt lat="29.130064" lon="105.24683"><ele>427.22092</ele><time>2025-12-19T22:07:46.000Z</time></trkpt>
        <trkpt lat="29.130094" lon="105.246792"><ele>426.83893</ele><time>2025-12-19T22:07:53.000Z</time></trkpt>
        <trkpt lat="29.130138" lon="105.246771"><ele>425.26047</ele><time>2025-12-19T22:08:04.000Z</time></trkpt>
        <trkpt lat="29.130146" lon="105.246716"><ele>425.18536</ele><time>2025-12-19T22:08:12.000Z</time></trkpt>
        <trkpt lat="29.130141" lon="105.246662"><ele>425.5839</ele><time>2025-12-19T22:08:22.000Z</time></trkpt>
        <trkpt lat="29.130138" lon="105.24661"><ele>425.16788</ele><time>2025-12-19T22:08:30.000Z</time></trkpt>
        <trkpt lat="29.13013" lon="105.246554"><ele>424.77454</ele><time>2025-12-19T22:08:39.000Z</time></trkpt>
        <trkpt lat="29.130126" lon="105.246606"><ele>425.90033</ele><time>2025-12-19T22:08:59.000Z</time></trkpt>
        <trkpt lat="29.130115" lon="105.246658"><ele>426.627</ele><time>2025-12-19T22:09:08.000Z</time></trkpt>
        <trkpt lat="29.130116" lon="105.24671"><ele>426.2564</ele><time>2025-12-19T22:09:14.000Z</time></trkpt>
        <trkpt lat="29.130115" lon="105.246771"><ele>426.31067</ele><time>2025-12-19T22:09:21.000Z</time></trkpt>
        <trkpt lat="29.130135" lon="105.24682"><ele>425.33582</ele><time>2025-12-19T22:09:30.000Z</time></trkpt>
        <trkpt lat="29.130168" lon="105.246862"><ele>423.79022</ele><time>2025-12-19T22:09:40.000Z</time></trkpt>
        <trkpt lat="29.130182" lon="105.246916"><ele>422.5149</ele><time>2025-12-19T22:09:51.000Z</time></trkpt>
        <trkpt lat="29.13016" lon="105.246965"><ele>422.29697</ele><time>2025-12-19T22:10:03.000Z</time></trkpt>
        <trkpt lat="29.130116" lon="105.246998"><ele>423.05533</ele><time>2025-12-19T22:10:16.000Z</time></trkpt>
        <trkpt lat="29.130104" lon="105.24705"><ele>422.81216</ele><time>2025-12-19T22:10:29.000Z</time></trkpt>
        <trkpt lat="29.1301" lon="105.247101"><ele>422.4557</ele><time>2025-12-19T22:10:38.000Z</time></trkpt>
        <trkpt lat="29.130116" lon="105.247159"><ele>421.63098</ele><time>2025-12-19T22:10:47.000Z</time></trkpt>
        <trkpt lat="29.130132" lon="105.247216"><ele>420.29697</ele><time>2025-12-19T22:10:54.000Z</time></trkpt>
        <trkpt lat="29.130115" lon="105.247269"><ele>419.1966</ele><time>2025-12-19T22:11:03.000Z</time></trkpt>
        <trkpt lat="29.130091" lon="105.247318"><ele>418.31543</ele><time>2025-12-19T22:11:12.000Z</time></trkpt>
        <trkpt lat="29.130072" lon="105.247373"><ele>417.45352</ele><time>2025-12-19T22:11:20.000Z</time></trkpt>
        <trkpt lat="29.130046" lon="105.247422"><ele>415.7925</ele><time>2025-12-19T22:11:28.000Z</time></trkpt>
        <trkpt lat="29.130015" lon="105.247463"><ele>414.8349</ele><time>2025-12-19T22:11:36.000Z</time></trkpt>
        <trkpt lat="29.130016" lon="105.247519"><ele>413.55435</ele><time>2025-12-19T22:11:43.000Z</time></trkpt>
        <trkpt lat="29.130028" lon="105.247573"><ele>412.91287</ele><time>2025-12-19T22:11:49.000Z</time></trkpt>
        <trkpt lat="29.130034" lon="105.24763"><ele>412.35513</ele><time>2025-12-19T22:11:55.000Z</time></trkpt>
        <trkpt lat="29.130053" lon="105.247679"><ele>412.11078</ele><time>2025-12-19T22:12:01.000Z</time></trkpt>
        <trkpt lat="29.130072" lon="105.247737"><ele>412.26636</ele><time>2025-12-19T22:12:08.000Z</time></trkpt>
        <trkpt lat="29.130087" lon="105.247787"><ele>411.64554</ele><time>2025-12-19T22:12:14.000Z</time></trkpt>
        <trkpt lat="29.130107" lon="105.247837"><ele>411.62506</ele><time>2025-12-19T22:12:19.000Z</time></trkpt>
        <trkpt lat="29.130117" lon="105.24789"><ele>411.49155</ele><time>2025-12-19T22:12:24.000Z</time></trkpt>
        <trkpt lat="29.13013" lon="105.247941"><ele>411.74863</ele><time>2025-12-19T22:12:30.000Z</time></trkpt>
        <trkpt lat="29.130144" lon="105.247999"><ele>411.54434</ele><time>2025-12-19T22:12:37.000Z</time></trkpt>
        <trkpt lat="29.130159" lon="105.248052"><ele>411.34637</ele><time>2025-12-19T22:12:45.000Z</time></trkpt>
        <trkpt lat="29.130152" lon="105.248107"><ele>411.95917</ele><time>2025-12-19T22:12:59.000Z</time></trkpt>
        <trkpt lat="29.130158" lon="105.24816"><ele>412.05563</ele><time>2025-12-19T22:13:07.000Z</time></trkpt>
        <trkpt lat="29.130185" lon="105.24821"><ele>412.17615</ele><time>2025-12-19T22:13:16.000Z</time></trkpt>
        <trkpt lat="29.130224" lon="105.248241"><ele>411.9496</ele><time>2025-12-19T22:13:26.000Z</time></trkpt>
        <trkpt lat="29.13026" lon="105.248278"><ele>411.44568</ele><time>2025-12-19T22:13:34.000Z</time></trkpt>
        <trkpt lat="29.130283" lon="105.248231"><ele>411.25482</ele><time>2025-12-19T22:13:42.000Z</time></trkpt>
        <trkpt lat="29.130304" lon="105.248181"><ele>410.80283</ele><time>2025-12-19T22:13:47.000Z</time></trkpt>
        <trkpt lat="29.130334" lon="105.248224"><ele>410.07986</ele><time>2025-12-19T22:13:58.000Z</time></trkpt>
        <trkpt lat="29.130352" lon="105.248276"><ele>409.6514</ele><time>2025-12-19T22:14:05.000Z</time></trkpt>
        <trkpt lat="29.130385" lon="105.248315"><ele>409.22125</ele><time>2025-12-19T22:14:16.000Z</time></trkpt>
        <trkpt lat="29.130401" lon="105.248365"><ele>409.12164</ele><time>2025-12-19T22:14:24.000Z</time></trkpt>
        <trkpt lat="29.130416" lon="105.248415"><ele>409.29526</ele><time>2025-12-19T22:14:33.000Z</time></trkpt>
        <trkpt lat="29.130425" lon="105.248471"><ele>409.48898</ele><time>2025-12-19T22:14:41.000Z</time></trkpt>
        <trkpt lat="29.130429" lon="105.248522"><ele>409.67188</ele><time>2025-12-19T22:14:58.000Z</time></trkpt>
        <trkpt lat="29.13043" lon="105.24858"><ele>409.98138</ele><time>2025-12-19T22:15:09.000Z</time></trkpt>
        <trkpt lat="29.130458" lon="105.248623"><ele>410.3445</ele><time>2025-12-19T22:15:24.000Z</time></trkpt>
        <trkpt lat="29.130457" lon="105.24868"><ele>411.2292</ele><time>2025-12-19T22:15:37.000Z</time></trkpt>
        <trkpt lat="29.130475" lon="105.248729"><ele>412.58417</ele><time>2025-12-19T22:16:12.000Z</time></trkpt>
        <trkpt lat="29.130483" lon="105.248781"><ele>412.73618</ele><time>2025-12-19T22:16:27.000Z</time></trkpt>
        <trkpt lat="29.130447" lon="105.248814"><ele>415.02676</ele><time>2025-12-19T22:17:41.000Z</time></trkpt>
        <trkpt lat="29.130472" lon="105.248858"><ele>415.73187</ele><time>2025-12-19T22:17:50.000Z</time></trkpt>
        <trkpt lat="29.13046" lon="105.24891"><ele>416.5097</ele><time>2025-12-19T22:18:01.000Z</time></trkpt>
        <trkpt lat="29.130481" lon="105.248966"><ele>418.15204</ele><time>2025-12-19T22:18:15.000Z</time></trkpt>
        <trkpt lat="29.13053" lon="105.248961"><ele>417.26544</ele><time>2025-12-19T22:18:23.000Z</time></trkpt>
        <trkpt lat="29.13049" lon="105.24899"><ele>416.73587</ele><time>2025-12-19T22:18:56.000Z</time></trkpt>
        <trkpt lat="29.130443" lon="105.248982"><ele>418.0128</ele><time>2025-12-19T22:19:02.000Z</time></trkpt>
        <trkpt lat="29.130419" lon="105.249027"><ele>419.5434</ele><time>2025-12-19T22:19:14.000Z</time></trkpt>
        <trkpt lat="29.130375" lon="105.249056"><ele>420.4381</ele><time>2025-12-19T22:19:21.000Z</time></trkpt>
        <trkpt lat="29.130358" lon="105.249106"><ele>422.06842</ele><time>2025-12-19T22:19:30.000Z</time></trkpt>
        <trkpt lat="29.130375" lon="105.249159"><ele>422.67548</ele><time>2025-12-19T22:19:36.000Z</time></trkpt>
        <trkpt lat="29.13041" lon="105.249193"><ele>423.33386</ele><time>2025-12-19T22:19:45.000Z</time></trkpt>
        <trkpt lat="29.13036" lon="105.249205"><ele>423.32492</ele><time>2025-12-19T22:20:05.000Z</time></trkpt>
        <trkpt lat="29.13032" lon="105.249235"><ele>424.28516</ele><time>2025-12-19T22:20:11.000Z</time></trkpt>
        <trkpt lat="29.130342" lon="105.249281"><ele>425.60764</ele><time>2025-12-19T22:20:41.000Z</time></trkpt>
        <trkpt lat="29.1303" lon="105.249309"><ele>426.36093</ele><time>2025-12-19T22:21:18.000Z</time></trkpt>
        <trkpt lat="29.130345" lon="105.249286"><ele>426.70663</ele><time>2025-12-19T22:21:41.000Z</time></trkpt>
        <trkpt lat="29.13034" lon="105.24923"><ele>425.36813</ele><time>2025-12-19T22:21:52.000Z</time></trkpt>
        <trkpt lat="29.130376" lon="105.249191"><ele>424.616</ele><time>2025-12-19T22:22:02.000Z</time></trkpt>
        <trkpt lat="29.130401" lon="105.249138"><ele>422.38873</ele><time>2025-12-19T22:22:24.000Z</time></trkpt>
        <trkpt lat="29.130445" lon="105.249153"><ele>421.75082</ele><time>2025-12-19T22:22:35.000Z</time></trkpt>
        <trkpt lat="29.130492" lon="105.249158"><ele>421.51758</ele><time>2025-12-19T22:23:02.000Z</time></trkpt>
        <trkpt lat="29.13054" lon="105.249173"><ele>420.47925</ele><time>2025-12-19T22:23:11.000Z</time></trkpt>
        <trkpt lat="29.130585" lon="105.24919"><ele>419.77673</ele><time>2025-12-19T22:23:17.000Z</time></trkpt>
        <trkpt lat="29.130624" lon="105.249221"><ele>419.33392</ele><time>2025-12-19T22:23:26.000Z</time></trkpt>
        <trkpt lat="29.130644" lon="105.249272"><ele>419.4571</ele><time>2025-12-19T22:23:43.000Z</time></trkpt>
        <trkpt lat="29.130653" lon="105.24933"><ele>420.6386</ele><time>2025-12-19T22:24:02.000Z</time></trkpt>
        <trkpt lat="29.130696" lon="105.249364"><ele>421.12006</ele><time>2025-12-19T22:24:10.000Z</time></trkpt>
        <trkpt lat="29.130726" lon="105.249405"><ele>421.01862</ele><time>2025-12-19T22:24:19.000Z</time></trkpt>
        <trkpt lat="29.130735" lon="105.249462"><ele>422.06073</ele><time>2025-12-19T22:24:41.000Z</time></trkpt>
        <trkpt lat="29.13074" lon="105.249516"><ele>423.0813</ele><time>2025-12-19T22:24:52.000Z</time></trkpt>
        <trkpt lat="29.130755" lon="105.249565"><ele>424.47153</ele><time>2025-12-19T22:25:01.000Z</time></trkpt>
        <trkpt lat="29.130772" lon="105.249614"><ele>426.1206</ele><time>2025-12-19T22:25:13.000Z</time></trkpt>
        <trkpt lat="29.130784" lon="105.249666"><ele>426.64133</ele><time>2025-12-19T22:25:21.000Z</time></trkpt>
        <trkpt lat="29.130813" lon="105.249707"><ele>427.79517</ele><time>2025-12-19T22:25:30.000Z</time></trkpt>
        <trkpt lat="29.130865" lon="105.249703"><ele>427.79315</ele><time>2025-12-19T22:25:48.000Z</time></trkpt>
        <trkpt lat="29.130855" lon="105.249769"><ele>428.49402</ele><time>2025-12-19T22:26:06.000Z</time></trkpt>
        <trkpt lat="29.130845" lon="105.24982"><ele>430.38095</ele><time>2025-12-19T22:26:19.000Z</time></trkpt>
        <trkpt lat="29.130868" lon="105.24987"><ele>432.12283</ele><time>2025-12-19T22:26:27.000Z</time></trkpt>
        <trkpt lat="29.130903" lon="105.249909"><ele>434.0188</ele><time>2025-12-19T22:26:36.000Z</time></trkpt>
        <trkpt lat="29.13094" lon="105.249942"><ele>435.26224</ele><time>2025-12-19T22:26:44.000Z</time></trkpt>
        <trkpt lat="29.13099" lon="105.249953"><ele>436.63162</ele><time>2025-12-19T22:26:55.000Z</time></trkpt>
        <trkpt lat="29.131038" lon="105.249959"><ele>437.2675</ele><time>2025-12-19T22:27:02.000Z</time></trkpt>
        <trkpt lat="29.131085" lon="105.249956"><ele>437.38535</ele><time>2025-12-19T22:27:08.000Z</time></trkpt>
        <trkpt lat="29.13113" lon="105.249952"><ele>437.55392</ele><time>2025-12-19T22:27:16.000Z</time></trkpt>
        <trkpt lat="29.131174" lon="105.249979"><ele>437.8029</ele><time>2025-12-19T22:27:26.000Z</time></trkpt>
        <trkpt lat="29.131225" lon="105.249978"><ele>438.36887</ele><time>2025-12-19T22:27:34.000Z</time></trkpt>
        <trkpt lat="29.131273" lon="105.249976"><ele>438.39606</ele><time>2025-12-19T22:27:41.000Z</time></trkpt>
        <trkpt lat="29.131315" lon="105.250004"><ele>438.99124</ele><time>2025-12-19T22:27:51.000Z</time></trkpt>
        <trkpt lat="29.131359" lon="105.250014"><ele>439.3786</ele><time>2025-12-19T22:28:00.000Z</time></trkpt>
        <trkpt lat="29.131402" lon="105.250038"><ele>439.97656</ele><time>2025-12-19T22:28:09.000Z</time></trkpt>
        <trkpt lat="29.131445" lon="105.25006"><ele>441.44836</ele><time>2025-12-19T22:28:22.000Z</time></trkpt>
        <trkpt lat="29.131491" lon="105.250073"><ele>442.39764</ele><time>2025-12-19T22:28:31.000Z</time></trkpt>
        <trkpt lat="29.131536" lon="105.250091"><ele>443.35898</ele><time>2025-12-19T22:28:44.000Z</time></trkpt>
        <trkpt lat="29.131579" lon="105.250117"><ele>444.31833</ele><time>2025-12-19T22:28:55.000Z</time></trkpt>
        <trkpt lat="29.131583" lon="105.250171"><ele>445.75653</ele><time>2025-12-19T22:29:15.000Z</time></trkpt>
        <trkpt lat="29.131601" lon="105.250122"><ele>445.50504</ele><time>2025-12-19T22:29:26.000Z</time></trkpt>
        <trkpt lat="29.131642" lon="105.250148"><ele>446.015</ele><time>2025-12-19T22:29:31.000Z</time></trkpt>
        <trkpt lat="29.131688" lon="105.250127"><ele>446.4157</ele><time>2025-12-19T22:29:39.000Z</time></trkpt>
        <trkpt lat="29.131733" lon="105.250111"><ele>446.17325</ele><time>2025-12-19T22:29:51.000Z</time></trkpt>
        <trkpt lat="29.131783" lon="105.250105"><ele>446.76508</ele><time>2025-12-19T22:30:01.000Z</time></trkpt>
        <trkpt lat="29.131823" lon="105.250131"><ele>448.09906</ele><time>2025-12-19T22:30:15.000Z</time></trkpt>
        <trkpt lat="29.131872" lon="105.250125"><ele>448.8326</ele><time>2025-12-19T22:30:26.000Z</time></trkpt>
        <trkpt lat="29.131914" lon="105.250095"><ele>449.09036</ele><time>2025-12-19T22:30:38.000Z</time></trkpt>
        <trkpt lat="29.131961" lon="105.250076"><ele>449.99084</ele><time>2025-12-19T22:30:47.000Z</time></trkpt>
        <trkpt lat="29.132006" lon="105.250059"><ele>450.59238</ele><time>2025-12-19T22:31:01.000Z</time></trkpt>
        <trkpt lat="29.132053" lon="105.250069"><ele>451.09662</ele><time>2025-12-19T22:31:13.000Z</time></trkpt>
        <trkpt lat="29.132095" lon="105.250092"><ele>451.91803</ele><time>2025-12-19T22:31:24.000Z</time></trkpt>
        <trkpt lat="29.13214" lon="105.250079"><ele>452.62137</ele><time>2025-12-19T22:31:32.000Z</time></trkpt>
        <trkpt lat="29.132183" lon="105.250058"><ele>453.30704</ele><time>2025-12-19T22:31:41.000Z</time></trkpt>
        <trkpt lat="29.132227" lon="105.250077"><ele>453.90045</ele><time>2025-12-19T22:31:50.000Z</time></trkpt>
        <trkpt lat="29.132277" lon="105.250084"><ele>454.2648</ele><time>2025-12-19T22:32:01.000Z</time></trkpt>
        <trkpt lat="29.132321" lon="105.250099"><ele>454.35266</ele><time>2025-12-19T22:32:10.000Z</time></trkpt>
        <trkpt lat="29.132357" lon="105.250132"><ele>454.58765</ele><time>2025-12-19T22:32:21.000Z</time></trkpt>
        <trkpt lat="29.132395" lon="105.250166"><ele>455.19098</ele><time>2025-12-19T22:32:30.000Z</time></trkpt>
        <trkpt lat="29.13243" lon="105.250202"><ele>455.6466</ele><time>2025-12-19T22:32:39.000Z</time></trkpt>
        <trkpt lat="29.13246" lon="105.250246"><ele>456.1294</ele><time>2025-12-19T22:32:49.000Z</time></trkpt>
        <trkpt lat="29.132482" lon="105.250293"><ele>456.8878</ele><time>2025-12-19T22:33:04.000Z</time></trkpt>
        <trkpt lat="29.132524" lon="105.25032"><ele>457.22852</ele><time>2025-12-19T22:33:25.000Z</time></trkpt>
        <trkpt lat="29.13256" lon="105.250354"><ele>458.06387</ele><time>2025-12-19T22:33:34.000Z</time></trkpt>
        <trkpt lat="29.132601" lon="105.250383"><ele>458.2562</ele><time>2025-12-19T22:33:44.000Z</time></trkpt>
        <trkpt lat="29.132613" lon="105.250437"><ele>459.8544</ele><time>2025-12-19T22:33:53.000Z</time></trkpt>
        <trkpt lat="29.132633" lon="105.25049"><ele>460.95248</ele><time>2025-12-19T22:34:00.000Z</time></trkpt>
        <trkpt lat="29.132665" lon="105.250532"><ele>462.70245</ele><time>2025-12-19T22:34:13.000Z</time></trkpt>
        <trkpt lat="29.132632" lon="105.250567"><ele>463.78598</ele><time>2025-12-19T22:34:28.000Z</time></trkpt>
        <trkpt lat="29.132589" lon="105.250596"><ele>464.6838</ele><time>2025-12-19T22:34:38.000Z</time></trkpt>
        <trkpt lat="29.132546" lon="105.250629"><ele>464.63675</ele><time>2025-12-19T22:34:46.000Z</time></trkpt>
        <trkpt lat="29.132506" lon="105.250667"><ele>465.49</ele><time>2025-12-19T22:34:55.000Z</time></trkpt>
        <trkpt lat="29.132471" lon="105.250708"><ele>465.85535</ele><time>2025-12-19T22:35:02.000Z</time></trkpt>
        <trkpt lat="29.132434" lon="105.250747"><ele>466.00137</ele><time>2025-12-19T22:35:09.000Z</time></trkpt>
        <trkpt lat="29.132407" lon="105.250793"><ele>466.41296</ele><time>2025-12-19T22:35:18.000Z</time></trkpt>
        <trkpt lat="29.132364" lon="105.250815"><ele>466.6856</ele><time>2025-12-19T22:35:25.000Z</time></trkpt>
        <trkpt lat="29.132322" lon="105.25085"><ele>466.57166</ele><time>2025-12-19T22:35:33.000Z</time></trkpt>
        <trkpt lat="29.132279" lon="105.250869"><ele>466.65262</ele><time>2025-12-19T22:35:40.000Z</time></trkpt>
        <trkpt lat="29.132229" lon="105.250873"><ele>466.5693</ele><time>2025-12-19T22:35:47.000Z</time></trkpt>
        <trkpt lat="29.132181" lon="105.250878"><ele>466.4316</ele><time>2025-12-19T22:35:54.000Z</time></trkpt>
        <trkpt lat="29.132134" lon="105.250888"><ele>466.08746</ele><time>2025-12-19T22:36:00.000Z</time></trkpt>
        <trkpt lat="29.132084" lon="105.250901"><ele>466.30676</ele><time>2025-12-19T22:36:07.000Z</time></trkpt>
        <trkpt lat="29.132044" lon="105.250927"><ele>466.39966</ele><time>2025-12-19T22:36:14.000Z</time></trkpt>
        <trkpt lat="29.131993" lon="105.250941"><ele>466.4237</ele><time>2025-12-19T22:36:21.000Z</time></trkpt>
        <trkpt lat="29.131948" lon="105.250958"><ele>466.62103</ele><time>2025-12-19T22:36:28.000Z</time></trkpt>
        <trkpt lat="29.131905" lon="105.250991"><ele>467.0385</ele><time>2025-12-19T22:36:35.000Z</time></trkpt>
        <trkpt lat="29.131872" lon="105.251028"><ele>468.054</ele><time>2025-12-19T22:36:47.000Z</time></trkpt>
        <trkpt lat="29.131837" lon="105.251065"><ele>468.70956</ele><time>2025-12-19T22:36:55.000Z</time></trkpt>
        <trkpt lat="29.131796" lon="105.251094"><ele>469.5468</ele><time>2025-12-19T22:37:03.000Z</time></trkpt>
        <trkpt lat="29.131765" lon="105.251135"><ele>470.12708</ele><time>2025-12-19T22:37:11.000Z</time></trkpt>
        <trkpt lat="29.131734" lon="105.251175"><ele>470.37787</ele><time>2025-12-19T22:37:17.000Z</time></trkpt>
        <trkpt lat="29.131708" lon="105.251223"><ele>471.34314</ele><time>2025-12-19T22:37:24.000Z</time></trkpt>
        <trkpt lat="29.131682" lon="105.251267"><ele>471.71594</ele><time>2025-12-19T22:37:36.000Z</time></trkpt>
        <trkpt lat="29.131664" lon="105.251318"><ele>472.37335</ele><time>2025-12-19T22:37:44.000Z</time></trkpt>
        <trkpt lat="29.131651" lon="105.251378"><ele>472.32034</ele><time>2025-12-19T22:37:54.000Z</time></trkpt>
        <trkpt lat="29.131627" lon="105.251425"><ele>473.75665</ele><time>2025-12-19T22:38:02.000Z</time></trkpt>
        <trkpt lat="29.131616" lon="105.251483"><ele>474.07864</ele><time>2025-12-19T22:38:10.000Z</time></trkpt>
        <trkpt lat="29.131614" lon="105.251542"><ele>474.83307</ele><time>2025-12-19T22:38:19.000Z</time></trkpt>
        <trkpt lat="29.131613" lon="105.251597"><ele>475.44788</ele><time>2025-12-19T22:38:27.000Z</time></trkpt>
        <trkpt lat="29.131605" lon="105.251649"><ele>475.59732</ele><time>2025-12-19T22:38:34.000Z</time></trkpt>
        <trkpt lat="29.131608" lon="105.251703"><ele>476.1819</ele><time>2025-12-19T22:38:40.000Z</time></trkpt>
        <trkpt lat="29.131603" lon="105.25176"><ele>475.59912</ele><time>2025-12-19T22:38:47.000Z</time></trkpt>
        <trkpt lat="29.13159" lon="105.251813"><ele>475.63855</ele><time>2025-12-19T22:38:57.000Z</time></trkpt>
        <trkpt lat="29.131555" lon="105.251846"><ele>475.90384</ele><time>2025-12-19T22:39:05.000Z</time></trkpt>
        <trkpt lat="29.131529" lon="105.251895"><ele>476.5773</ele><time>2025-12-19T22:39:15.000Z</time></trkpt>
        <trkpt lat="29.131488" lon="105.251918"><ele>477.1623</ele><time>2025-12-19T22:39:21.000Z</time></trkpt>
        <trkpt lat="29.131447" lon="105.25195"><ele>477.73917</ele><time>2025-12-19T22:39:29.000Z</time></trkpt>
        <trkpt lat="29.131407" lon="105.251977"><ele>478.21832</ele><time>2025-12-19T22:39:35.000Z</time></trkpt>
        <trkpt lat="29.13137" lon="105.25201"><ele>478.13742</ele><time>2025-12-19T22:39:42.000Z</time></trkpt>
        <trkpt lat="29.131325" lon="105.252037"><ele>477.98975</ele><time>2025-12-19T22:39:48.000Z</time></trkpt>
        <trkpt lat="29.131276" lon="105.252047"><ele>478.154</ele><time>2025-12-19T22:40:09.000Z</time></trkpt>
        <trkpt lat="29.131244" lon="105.25209"><ele>477.6891</ele><time>2025-12-19T22:40:17.000Z</time></trkpt>
        <trkpt lat="29.131232" lon="105.252143"><ele>476.79767</ele><time>2025-12-19T22:40:28.000Z</time></trkpt>
        <trkpt lat="29.131188" lon="105.252166"><ele>476.14917</ele><time>2025-12-19T22:40:35.000Z</time></trkpt>
        <trkpt lat="29.131144" lon="105.252193"><ele>476.5069</ele><time>2025-12-19T22:40:44.000Z</time></trkpt>
        <trkpt lat="29.131093" lon="105.252209"><ele>476.5165</ele><time>2025-12-19T22:40:50.000Z</time></trkpt>
        <trkpt lat="29.131047" lon="105.25222"><ele>477.0225</ele><time>2025-12-19T22:40:56.000Z</time></trkpt>
        <trkpt lat="29.131002" lon="105.252232"><ele>478.0031</ele><time>2025-12-19T22:41:01.000Z</time></trkpt>
        <trkpt lat="29.13096" lon="105.252261"><ele>479.06696</ele><time>2025-12-19T22:41:09.000Z</time></trkpt>
        <trkpt lat="29.130913" lon="105.25229"><ele>479.49503</ele><time>2025-12-19T22:41:14.000Z</time></trkpt>
        <trkpt lat="29.130872" lon="105.252326"><ele>479.40173</ele><time>2025-12-19T22:41:19.000Z</time></trkpt>
        <trkpt lat="29.130844" lon="105.252367"><ele>479.62894</ele><time>2025-12-19T22:41:25.000Z</time></trkpt>
        <trkpt lat="29.130819" lon="105.252413"><ele>479.57025</ele><time>2025-12-19T22:41:30.000Z</time></trkpt>
        <trkpt lat="29.130793" lon="105.252464"><ele>479.2279</ele><time>2025-12-19T22:41:39.000Z</time></trkpt>
        <trkpt lat="29.13077" lon="105.25251"><ele>478.9371</ele><time>2025-12-19T22:41:46.000Z</time></trkpt>
        <trkpt lat="29.130756" lon="105.25256"><ele>479.2813</ele><time>2025-12-19T22:41:52.000Z</time></trkpt>
        <trkpt lat="29.130736" lon="105.25261"><ele>479.74847</ele><time>2025-12-19T22:41:57.000Z</time></trkpt>
        <trkpt lat="29.130728" lon="105.252663"><ele>479.99268</ele><time>2025-12-19T22:42:03.000Z</time></trkpt>
        <trkpt lat="29.130743" lon="105.252718"><ele>479.70898</ele><time>2025-12-19T22:42:10.000Z</time></trkpt>
        <trkpt lat="29.130769" lon="105.252768"><ele>478.80356</ele><time>2025-12-19T22:42:16.000Z</time></trkpt>
        <trkpt lat="29.130786" lon="105.252823"><ele>477.85815</ele><time>2025-12-19T22:42:22.000Z</time></trkpt>
        <trkpt lat="29.130803" lon="105.252876"><ele>477.02863</ele><time>2025-12-19T22:42:30.000Z</time></trkpt>
        <trkpt lat="29.13084" lon="105.252909"><ele>475.91165</ele><time>2025-12-19T22:42:37.000Z</time></trkpt>
        <trkpt lat="29.130878" lon="105.252952"><ele>474.63278</ele><time>2025-12-19T22:42:44.000Z</time></trkpt>
        <trkpt lat="29.130903" lon="105.252997"><ele>473.44672</ele><time>2025-12-19T22:42:50.000Z</time></trkpt>
        <trkpt lat="29.130925" lon="105.253052"><ele>472.38626</ele><time>2025-12-19T22:42:58.000Z</time></trkpt>
        <trkpt lat="29.130936" lon="105.253111"><ele>471.93008</ele><time>2025-12-19T22:43:04.000Z</time></trkpt>
        <trkpt lat="29.130952" lon="105.253164"><ele>471.39148</ele><time>2025-12-19T22:43:10.000Z</time></trkpt>
        <trkpt lat="29.13095" lon="105.253221"><ele>471.1046</ele><time>2025-12-19T22:43:16.000Z</time></trkpt>
        <trkpt lat="29.130945" lon="105.253282"><ele>471.6628</ele><time>2025-12-19T22:43:21.000Z</time></trkpt>
        <trkpt lat="29.130936" lon="105.253342"><ele>472.0142</ele><time>2025-12-19T22:43:28.000Z</time></trkpt>
        <trkpt lat="29.130933" lon="105.253405"><ele>472.06595</ele><time>2025-12-19T22:43:35.000Z</time></trkpt>
        <trkpt lat="29.130938" lon="105.253468"><ele>471.93958</ele><time>2025-12-19T22:43:41.000Z</time></trkpt>
        <trkpt lat="29.13094" lon="105.253523"><ele>471.738</ele><time>2025-12-19T22:43:47.000Z</time></trkpt>
        <trkpt lat="29.130951" lon="105.253577"><ele>471.22794</ele><time>2025-12-19T22:43:53.000Z</time></trkpt>
        <trkpt lat="29.130973" lon="105.253632"><ele>470.479</ele><time>2025-12-19T22:43:59.000Z</time></trkpt>
        <trkpt lat="29.130973" lon="105.253684"><ele>470.03677</ele><time>2025-12-19T22:44:05.000Z</time></trkpt>
        <trkpt lat="29.130988" lon="105.253736"><ele>469.82138</ele><time>2025-12-19T22:44:11.000Z</time></trkpt>
        <trkpt lat="29.131009" lon="105.253782"><ele>468.7432</ele><time>2025-12-19T22:44:16.000Z</time></trkpt>
        <trkpt lat="29.131017" lon="105.253832"><ele>467.9451</ele><time>2025-12-19T22:44:22.000Z</time></trkpt>
        <trkpt lat="29.131029" lon="105.253892"><ele>467.40826</ele><time>2025-12-19T22:44:29.000Z</time></trkpt>
        <trkpt lat="29.131034" lon="105.253949"><ele>466.7274</ele><time>2025-12-19T22:44:35.000Z</time></trkpt>
        <trkpt lat="29.131035" lon="105.254001"><ele>465.78873</ele><time>2025-12-19T22:44:41.000Z</time></trkpt>
        <trkpt lat="29.131041" lon="105.254055"><ele>464.87512</ele><time>2025-12-19T22:44:47.000Z</time></trkpt>
        <trkpt lat="29.131018" lon="105.254102"><ele>464.58658</ele><time>2025-12-19T22:44:53.000Z</time></trkpt>
        <trkpt lat="29.131006" lon="105.25416"><ele>464.48013</ele><time>2025-12-19T22:45:00.000Z</time></trkpt>
        <trkpt lat="29.130979" lon="105.254207"><ele>464.7884</ele><time>2025-12-19T22:45:08.000Z</time></trkpt>
        <trkpt lat="29.13094" lon="105.254251"><ele>465.6447</ele><time>2025-12-19T22:45:15.000Z</time></trkpt>
        <trkpt lat="29.130919" lon="105.2543"><ele>465.69513</ele><time>2025-12-19T22:45:21.000Z</time></trkpt>
        <trkpt lat="29.130906" lon="105.254352"><ele>465.59726</ele><time>2025-12-19T22:45:26.000Z</time></trkpt>
        <trkpt lat="29.130879" lon="105.254394"><ele>465.32242</ele><time>2025-12-19T22:45:31.000Z</time></trkpt>
        <trkpt lat="29.130843" lon="105.254428"><ele>464.66815</ele><time>2025-12-19T22:45:37.000Z</time></trkpt>
        <trkpt lat="29.130798" lon="105.254455"><ele>464.7678</ele><time>2025-12-19T22:45:44.000Z</time></trkpt>
        <trkpt lat="29.130749" lon="105.254471"><ele>465.5272</ele><time>2025-12-19T22:45:51.000Z</time></trkpt>
        <trkpt lat="29.130716" lon="105.254507"><ele>465.9425</ele><time>2025-12-19T22:45:58.000Z</time></trkpt>
        <trkpt lat="29.130682" lon="105.254543"><ele>466.73798</ele><time>2025-12-19T22:46:04.000Z</time></trkpt>
        <trkpt lat="29.130645" lon="105.25458"><ele>467.0629</ele><time>2025-12-19T22:46:10.000Z</time></trkpt>
        <trkpt lat="29.130598" lon="105.254609"><ele>467.15695</ele><time>2025-12-19T22:46:16.000Z</time></trkpt>
        <trkpt lat="29.13057" lon="105.254651"><ele>466.75677</ele><time>2025-12-19T22:46:23.000Z</time></trkpt>
        <trkpt lat="29.130548" lon="105.254698"><ele>466.37396</ele><time>2025-12-19T22:46:30.000Z</time></trkpt>
        <trkpt lat="29.130528" lon="105.254747"><ele>465.4343</ele><time>2025-12-19T22:46:49.000Z</time></trkpt>
        <trkpt lat="29.130516" lon="105.254804"><ele>465.6029</ele><time>2025-12-19T22:46:59.000Z</time></trkpt>
        <trkpt lat="29.130481" lon="105.254851"><ele>465.34973</ele><time>2025-12-19T22:47:05.000Z</time></trkpt>
        <trkpt lat="29.130458" lon="105.254903"><ele>464.95447</ele><time>2025-12-19T22:47:17.000Z</time></trkpt>
        <trkpt lat="29.130426" lon="105.254941"><ele>464.32956</ele><time>2025-12-19T22:47:24.000Z</time></trkpt>
        <trkpt lat="29.130402" lon="105.254985"><ele>463.68146</ele><time>2025-12-19T22:47:30.000Z</time></trkpt>
        <trkpt lat="29.130364" lon="105.255013"><ele>462.5859</ele><time>2025-12-19T22:47:38.000Z</time></trkpt>
        <trkpt lat="29.13032" lon="105.255043"><ele>462.4658</ele><time>2025-12-19T22:47:49.000Z</time></trkpt>
        <trkpt lat="29.130262" lon="105.255043"><ele>461.0292</ele><time>2025-12-19T22:48:41.000Z</time></trkpt>
        <trkpt lat="29.130236" lon="105.255093"><ele>460.90015</ele><time>2025-12-19T22:49:09.000Z</time></trkpt>
        <trkpt lat="29.130199" lon="105.255123"><ele>460.65823</ele><time>2025-12-19T22:49:17.000Z</time></trkpt>
        <trkpt lat="29.130155" lon="105.25514"><ele>459.97577</ele><time>2025-12-19T22:49:25.000Z</time></trkpt>
        <trkpt lat="29.130112" lon="105.255161"><ele>459.61047</ele><time>2025-12-19T22:49:32.000Z</time></trkpt>
        <trkpt lat="29.130068" lon="105.255185"><ele>458.76923</ele><time>2025-12-19T22:49:40.000Z</time></trkpt>
        <trkpt lat="29.130025" lon="105.255205"><ele>457.99048</ele><time>2025-12-19T22:49:47.000Z</time></trkpt>
        <trkpt lat="29.129979" lon="105.255211"><ele>457.6232</ele><time>2025-12-19T22:49:54.000Z</time></trkpt>
        <trkpt lat="29.129934" lon="105.255214"><ele>457.65985</ele><time>2025-12-19T22:50:01.000Z</time></trkpt>
        <trkpt lat="29.129887" lon="105.255206"><ele>457.49692</ele><time>2025-12-19T22:50:09.000Z</time></trkpt>
        <trkpt lat="29.129843" lon="105.255227"><ele>457.4471</ele><time>2025-12-19T22:50:21.000Z</time></trkpt>
        <trkpt lat="29.129798" lon="105.255221"><ele>457.30835</ele><time>2025-12-19T22:50:29.000Z</time></trkpt>
        <trkpt lat="29.129749" lon="105.255214"><ele>457.11087</ele><time>2025-12-19T22:50:36.000Z</time></trkpt>
        <trkpt lat="29.129697" lon="105.255223"><ele>457.2469</ele><time>2025-12-19T22:50:45.000Z</time></trkpt>
        <trkpt lat="29.129649" lon="105.255223"><ele>456.21155</ele><time>2025-12-19T22:50:52.000Z</time></trkpt>
        <trkpt lat="29.129601" lon="105.255221"><ele>455.67682</ele><time>2025-12-19T22:50:58.000Z</time></trkpt>
        <trkpt lat="29.129551" lon="105.255192"><ele>455.055</ele><time>2025-12-19T22:51:07.000Z</time></trkpt>
        <trkpt lat="29.129504" lon="105.255184"><ele>454.70618</ele><time>2025-12-19T22:51:12.000Z</time></trkpt>
        <trkpt lat="29.129463" lon="105.255156"><ele>454.51013</ele><time>2025-12-19T22:51:17.000Z</time></trkpt>
        <trkpt lat="29.129416" lon="105.255132"><ele>453.73257</ele><time>2025-12-19T22:51:23.000Z</time></trkpt>
        <trkpt lat="29.129386" lon="105.255089"><ele>453.05273</ele><time>2025-12-19T22:51:31.000Z</time></trkpt>
        <trkpt lat="29.129361" lon="105.255044"><ele>452.65576</ele><time>2025-12-19T22:51:37.000Z</time></trkpt>
        <trkpt lat="29.129329" lon="105.255001"><ele>452.21066</ele><time>2025-12-19T22:51:43.000Z</time></trkpt>
        <trkpt lat="29.129294" lon="105.254965"><ele>451.3217</ele><time>2025-12-19T22:51:51.000Z</time></trkpt>
        <trkpt lat="29.12926" lon="105.254927"><ele>450.55588</ele><time>2025-12-19T22:51:59.000Z</time></trkpt>
        <trkpt lat="29.129225" lon="105.254892"><ele>450.3542</ele><time>2025-12-19T22:52:05.000Z</time></trkpt>
        <trkpt lat="29.129197" lon="105.254842"><ele>450.32416</ele><time>2025-12-19T22:52:10.000Z</time></trkpt>
        <trkpt lat="29.129164" lon="105.254799"><ele>450.16022</ele><time>2025-12-19T22:52:15.000Z</time></trkpt>
        <trkpt lat="29.129128" lon="105.254766"><ele>449.6749</ele><time>2025-12-19T22:52:20.000Z</time></trkpt>
        <trkpt lat="29.129085" lon="105.254738"><ele>449.22495</ele><time>2025-12-19T22:52:27.000Z</time></trkpt>
        <trkpt lat="29.129033" lon="105.25474"><ele>448.62326</ele><time>2025-12-19T22:52:32.000Z</time></trkpt>
        <trkpt lat="29.128987" lon="105.254733"><ele>447.6692</ele><time>2025-12-19T22:52:36.000Z</time></trkpt>
        <trkpt lat="29.128935" lon="105.254728"><ele>446.58102</ele><time>2025-12-19T22:52:41.000Z</time></trkpt>
        <trkpt lat="29.128889" lon="105.254727"><ele>445.49316</ele><time>2025-12-19T22:52:47.000Z</time></trkpt>
        <trkpt lat="29.128841" lon="105.254725"><ele>444.37057</ele><time>2025-12-19T22:52:53.000Z</time></trkpt>
        <trkpt lat="29.128795" lon="105.254731"><ele>443.7011</ele><time>2025-12-19T22:52:58.000Z</time></trkpt>
        <trkpt lat="29.128753" lon="105.254752"><ele>443.33942</ele><time>2025-12-19T22:53:04.000Z</time></trkpt>
        <trkpt lat="29.128703" lon="105.254761"><ele>442.3207</ele><time>2025-12-19T22:53:11.000Z</time></trkpt>
        <trkpt lat="29.128655" lon="105.254755"><ele>442.25983</ele><time>2025-12-19T22:53:19.000Z</time></trkpt>
        <trkpt lat="29.128605" lon="105.254741"><ele>441.7238</ele><time>2025-12-19T22:53:29.000Z</time></trkpt>
        <trkpt lat="29.128556" lon="105.25472"><ele>442.02155</ele><time>2025-12-19T22:53:35.000Z</time></trkpt>
        <trkpt lat="29.12851" lon="105.254698"><ele>442.47708</ele><time>2025-12-19T22:53:40.000Z</time></trkpt>
        <trkpt lat="29.128471" lon="105.254669"><ele>442.6491</ele><time>2025-12-19T22:53:47.000Z</time></trkpt>
        <trkpt lat="29.12843" lon="105.254645"><ele>442.87988</ele><time>2025-12-19T22:53:54.000Z</time></trkpt>
        <trkpt lat="29.128382" lon="105.254616"><ele>443.38318</ele><time>2025-12-19T22:53:59.000Z</time></trkpt>
        <trkpt lat="29.12833" lon="105.254594"><ele>443.10486</ele><time>2025-12-19T22:54:05.000Z</time></trkpt>
        <trkpt lat="29.128285" lon="105.25459"><ele>443.39526</ele><time>2025-12-19T22:54:12.000Z</time></trkpt>
        <trkpt lat="29.128239" lon="105.254599"><ele>442.75897</ele><time>2025-12-19T22:54:19.000Z</time></trkpt>
        <trkpt lat="29.128195" lon="105.25462"><ele>442.95016</ele><time>2025-12-19T22:54:26.000Z</time></trkpt>
        <trkpt lat="29.12816" lon="105.254667"><ele>442.16498</ele><time>2025-12-19T22:54:46.000Z</time></trkpt>
        <trkpt lat="29.128117" lon="105.254692"><ele>440.16437</ele><time>2025-12-19T22:55:38.000Z</time></trkpt>
        <trkpt lat="29.128074" lon="105.25471"><ele>439.7601</ele><time>2025-12-19T22:55:44.000Z</time></trkpt>
        <trkpt lat="29.128026" lon="105.254717"><ele>439.1476</ele><time>2025-12-19T22:55:52.000Z</time></trkpt>
        <trkpt lat="29.127983" lon="105.254699"><ele>438.9685</ele><time>2025-12-19T22:55:59.000Z</time></trkpt>
        <trkpt lat="29.12795" lon="105.254663"><ele>439.27484</ele><time>2025-12-19T22:56:11.000Z</time></trkpt>
        <trkpt lat="29.127896" lon="105.254653"><ele>439.94458</ele><time>2025-12-19T22:56:16.000Z</time></trkpt>
        <trkpt lat="29.127854" lon="105.254678"><ele>439.85483</ele><time>2025-12-19T22:56:20.000Z</time></trkpt>
        <trkpt lat="29.127808" lon="105.2547"><ele>438.96295</ele><time>2025-12-19T22:56:25.000Z</time></trkpt>
        <trkpt lat="29.127761" lon="105.254708"><ele>438.16754</ele><time>2025-12-19T22:56:32.000Z</time></trkpt>
        <trkpt lat="29.127716" lon="105.254714"><ele>437.04037</ele><time>2025-12-19T22:56:39.000Z</time></trkpt>
        <trkpt lat="29.127666" lon="105.254717"><ele>435.45984</ele><time>2025-12-19T22:56:46.000Z</time></trkpt>
        <trkpt lat="29.127616" lon="105.254715"><ele>433.72073</ele><time>2025-12-19T22:56:54.000Z</time></trkpt>
        <trkpt lat="29.127572" lon="105.25468"><ele>432.5779</ele><time>2025-12-19T22:57:01.000Z</time></trkpt>
        <trkpt lat="29.127532" lon="105.254651"><ele>432.20078</ele><time>2025-12-19T22:57:07.000Z</time></trkpt>
        <trkpt lat="29.127504" lon="105.25461"><ele>432.0547</ele><time>2025-12-19T22:57:13.000Z</time></trkpt>
        <trkpt lat="29.12748" lon="105.254561"><ele>431.83102</ele><time>2025-12-19T22:57:20.000Z</time></trkpt>
        <trkpt lat="29.127453" lon="105.254509"><ele>431.6858</ele><time>2025-12-19T22:57:27.000Z</time></trkpt>
        <trkpt lat="29.127422" lon="105.254467"><ele>431.91904</ele><time>2025-12-19T22:57:32.000Z</time></trkpt>
        <trkpt lat="29.127382" lon="105.254432"><ele>431.7915</ele><time>2025-12-19T22:57:38.000Z</time></trkpt>
        <trkpt lat="29.127339" lon="105.2544"><ele>431.35565</ele><time>2025-12-19T22:57:44.000Z</time></trkpt>
        <trkpt lat="29.127294" lon="105.254384"><ele>430.85828</ele><time>2025-12-19T22:57:49.000Z</time></trkpt>
        <trkpt lat="29.127254" lon="105.254354"><ele>429.87872</ele><time>2025-12-19T22:57:55.000Z</time></trkpt>
        <trkpt lat="29.127215" lon="105.254319"><ele>430.06348</ele><time>2025-12-19T22:58:01.000Z</time></trkpt>
        <trkpt lat="29.127167" lon="105.254314"><ele>429.9964</ele><time>2025-12-19T22:58:07.000Z</time></trkpt>
        <trkpt lat="29.127123" lon="105.254334"><ele>429.9186</ele><time>2025-12-19T22:58:14.000Z</time></trkpt>
        <trkpt lat="29.127075" lon="105.254348"><ele>429.3159</ele><time>2025-12-19T22:58:19.000Z</time></trkpt>
        <trkpt lat="29.127036" lon="105.254386"><ele>428.70346</ele><time>2025-12-19T22:58:26.000Z</time></trkpt>
        <trkpt lat="29.126988" lon="105.254406"><ele>427.54236</ele><time>2025-12-19T22:58:32.000Z</time></trkpt>
        <trkpt lat="29.126948" lon="105.254445"><ele>426.74048</ele><time>2025-12-19T22:58:37.000Z</time></trkpt>
        <trkpt lat="29.126906" lon="105.254468"><ele>426.29453</ele><time>2025-12-19T22:58:44.000Z</time></trkpt>
        <trkpt lat="29.126868" lon="105.254499"><ele>424.94916</ele><time>2025-12-19T22:59:07.000Z</time></trkpt>
        <trkpt lat="29.126823" lon="105.254475"><ele>425.1239</ele><time>2025-12-19T22:59:20.000Z</time></trkpt>
        <trkpt lat="29.126867" lon="105.254492"><ele>425.03333</ele><time>2025-12-19T22:59:34.000Z</time></trkpt>
        <trkpt lat="29.126823" lon="105.254515"><ele>424.40646</ele><time>2025-12-19T22:59:49.000Z</time></trkpt>
        <trkpt lat="29.126775" lon="105.254501"><ele>424.86624</ele><time>2025-12-19T23:00:00.000Z</time></trkpt>
        <trkpt lat="29.126727" lon="105.254505"><ele>424.47107</ele><time>2025-12-19T23:00:09.000Z</time></trkpt>
        <trkpt lat="29.126684" lon="105.254524"><ele>424.20053</ele><time>2025-12-19T23:00:16.000Z</time></trkpt>
        <trkpt lat="29.126638" lon="105.254532"><ele>423.70496</ele><time>2025-12-19T23:00:22.000Z</time></trkpt>
        <trkpt lat="29.126587" lon="105.254541"><ele>422.12756</ele><time>2025-12-19T23:00:29.000Z</time></trkpt>
        <trkpt lat="29.126534" lon="105.254563"><ele>420.37</ele><time>2025-12-19T23:00:36.000Z</time></trkpt>
        <trkpt lat="29.126491" lon="105.254598"><ele>418.31027</ele><time>2025-12-19T23:00:43.000Z</time></trkpt>
        <trkpt lat="29.126464" lon="105.254642"><ele>416.95102</ele><time>2025-12-19T23:00:49.000Z</time></trkpt>
        <trkpt lat="29.126443" lon="105.25469"><ele>416.03433</ele><time>2025-12-19T23:00:54.000Z</time></trkpt>
        <trkpt lat="29.126412" lon="105.254736"><ele>414.70007</ele><time>2025-12-19T23:01:01.000Z</time></trkpt>
        <trkpt lat="29.126387" lon="105.254786"><ele>414.03378</ele><time>2025-12-19T23:01:08.000Z</time></trkpt>
        <trkpt lat="29.126356" lon="105.254837"><ele>414.26947</ele><time>2025-12-19T23:01:14.000Z</time></trkpt>
        <trkpt lat="29.126328" lon="105.254882"><ele>413.58502</ele><time>2025-12-19T23:01:19.000Z</time></trkpt>
        <trkpt lat="29.126316" lon="105.254936"><ele>412.26828</ele><time>2025-12-19T23:01:24.000Z</time></trkpt>
        <trkpt lat="29.126287" lon="105.254982"><ele>412.38992</ele><time>2025-12-19T23:01:29.000Z</time></trkpt>
        <trkpt lat="29.126266" lon="105.255031"><ele>412.17075</ele><time>2025-12-19T23:01:35.000Z</time></trkpt>
        <trkpt lat="29.126245" lon="105.255078"><ele>411.64017</ele><time>2025-12-19T23:01:41.000Z</time></trkpt>
        <trkpt lat="29.126215" lon="105.255127"><ele>411.46835</ele><time>2025-12-19T23:01:48.000Z</time></trkpt>
        <trkpt lat="29.12618" lon="105.255171"><ele>411.41318</ele><time>2025-12-19T23:01:55.000Z</time></trkpt>
        <trkpt lat="29.126144" lon="105.255211"><ele>411.31317</ele><time>2025-12-19T23:02:01.000Z</time></trkpt>
        <trkpt lat="29.126101" lon="105.255245"><ele>411.6441</ele><time>2025-12-19T23:02:07.000Z</time></trkpt>
        <trkpt lat="29.126055" lon="105.255265"><ele>412.4705</ele><time>2025-12-19T23:02:14.000Z</time></trkpt>
        <trkpt lat="29.126006" lon="105.255263"><ele>413.66696</ele><time>2025-12-19T23:02:21.000Z</time></trkpt>
        <trkpt lat="29.125968" lon="105.255233"><ele>413.7761</ele><time>2025-12-19T23:02:26.000Z</time></trkpt>
        <trkpt lat="29.125931" lon="105.255203"><ele>413.3183</ele><time>2025-12-19T23:02:33.000Z</time></trkpt>
        <trkpt lat="29.125891" lon="105.255175"><ele>412.8525</ele><time>2025-12-19T23:02:41.000Z</time></trkpt>
        <trkpt lat="29.125843" lon="105.255152"><ele>412.64993</ele><time>2025-12-19T23:02:47.000Z</time></trkpt>
        <trkpt lat="29.125798" lon="105.255142"><ele>412.1618</ele><time>2025-12-19T23:02:52.000Z</time></trkpt>
        <trkpt lat="29.125754" lon="105.255124"><ele>411.19867</ele><time>2025-12-19T23:02:57.000Z</time></trkpt>
        <trkpt lat="29.125711" lon="105.255094"><ele>410.1407</ele><time>2025-12-19T23:03:04.000Z</time></trkpt>
        <trkpt lat="29.125661" lon="105.255075"><ele>409.33838</ele><time>2025-12-19T23:03:10.000Z</time></trkpt>
        <trkpt lat="29.125615" lon="105.255062"><ele>409.16638</ele><time>2025-12-19T23:03:17.000Z</time></trkpt>
        <trkpt lat="29.125563" lon="105.255071"><ele>408.5453</ele><time>2025-12-19T23:03:23.000Z</time></trkpt>
        <trkpt lat="29.125513" lon="105.255089"><ele>408.3474</ele><time>2025-12-19T23:03:29.000Z</time></trkpt>
        <trkpt lat="29.125464" lon="105.255109"><ele>407.51083</ele><time>2025-12-19T23:03:35.000Z</time></trkpt>
        <trkpt lat="29.12542" lon="105.255133"><ele>406.90265</ele><time>2025-12-19T23:03:40.000Z</time></trkpt>
        <trkpt lat="29.125392" lon="105.255183"><ele>406.33102</ele><time>2025-12-19T23:03:46.000Z</time></trkpt>
        <trkpt lat="29.125365" lon="105.255227"><ele>406.39624</ele><time>2025-12-19T23:03:51.000Z</time></trkpt>
        <trkpt lat="29.12533" lon="105.255279"><ele>406.7341</ele><time>2025-12-19T23:03:57.000Z</time></trkpt>
        <trkpt lat="29.12531" lon="105.255333"><ele>406.51962</ele><time>2025-12-19T23:04:03.000Z</time></trkpt>
        <trkpt lat="29.125291" lon="105.255383"><ele>406.81793</ele><time>2025-12-19T23:04:09.000Z</time></trkpt>
        <trkpt lat="29.125273" lon="105.255432"><ele>406.85684</ele><time>2025-12-19T23:04:14.000Z</time></trkpt>
        <trkpt lat="29.125247" lon="105.255481"><ele>407.27924</ele><time>2025-12-19T23:04:20.000Z</time></trkpt>
        <trkpt lat="29.125221" lon="105.25553"><ele>406.77606</ele><time>2025-12-19T23:04:26.000Z</time></trkpt>
        <trkpt lat="29.125186" lon="105.255574"><ele>406.0899</ele><time>2025-12-19T23:04:32.000Z</time></trkpt>
        <trkpt lat="29.125155" lon="105.255621"><ele>405.5454</ele><time>2025-12-19T23:04:38.000Z</time></trkpt>
        <trkpt lat="29.12513" lon="105.255668"><ele>405.5588</ele><time>2025-12-19T23:04:44.000Z</time></trkpt>
        <trkpt lat="29.125112" lon="105.25573"><ele>405.725</ele><time>2025-12-19T23:04:50.000Z</time></trkpt>
        <trkpt lat="29.125098" lon="105.255778"><ele>406.04816</ele><time>2025-12-19T23:04:57.000Z</time></trkpt>
        <trkpt lat="29.125084" lon="105.255845"><ele>406.66428</ele><time>2025-12-19T23:05:04.000Z</time></trkpt>
        <trkpt lat="29.125072" lon="105.255897"><ele>406.97525</ele><time>2025-12-19T23:05:10.000Z</time></trkpt>
        <trkpt lat="29.125076" lon="105.25595"><ele>406.89496</ele><time>2025-12-19T23:05:15.000Z</time></trkpt>
        <trkpt lat="29.125079" lon="105.256013"><ele>406.20477</ele><time>2025-12-19T23:05:21.000Z</time></trkpt>
        <trkpt lat="29.125079" lon="105.256075"><ele>406.3132</ele><time>2025-12-19T23:05:25.000Z</time></trkpt>
        <trkpt lat="29.12509" lon="105.256137"><ele>406.3321</ele><time>2025-12-19T23:05:30.000Z</time></trkpt>
        <trkpt lat="29.125106" lon="105.256186"><ele>406.41907</ele><time>2025-12-19T23:05:34.000Z</time></trkpt>
        <trkpt lat="29.12512" lon="105.256239"><ele>406.52866</ele><time>2025-12-19T23:05:38.000Z</time></trkpt>
        <trkpt lat="29.12513" lon="105.256296"><ele>406.40387</ele><time>2025-12-19T23:05:43.000Z</time></trkpt>
        <trkpt lat="29.12515" lon="105.256348"><ele>406.17303</ele><time>2025-12-19T23:05:48.000Z</time></trkpt>
        <trkpt lat="29.125166" lon="105.256402"><ele>406.39124</ele><time>2025-12-19T23:05:53.000Z</time></trkpt>
        <trkpt lat="29.125186" lon="105.256457"><ele>405.78534</ele><time>2025-12-19T23:06:00.000Z</time></trkpt>
        <trkpt lat="29.125208" lon="105.256506"><ele>405.40405</ele><time>2025-12-19T23:06:05.000Z</time></trkpt>
        <trkpt lat="29.125211" lon="105.256561"><ele>404.84293</ele><time>2025-12-19T23:06:10.000Z</time></trkpt>
        <trkpt lat="29.125216" lon="105.256616"><ele>404.5362</ele><time>2025-12-19T23:06:15.000Z</time></trkpt>
        <trkpt lat="29.125217" lon="105.256668"><ele>403.53433</ele><time>2025-12-19T23:06:21.000Z</time></trkpt>
        <trkpt lat="29.125217" lon="105.25672"><ele>403.05</ele><time>2025-12-19T23:06:26.000Z</time></trkpt>
        <trkpt lat="29.12521" lon="105.256776"><ele>402.1435</ele><time>2025-12-19T23:06:33.000Z</time></trkpt>
        <trkpt lat="29.125201" lon="105.256832"><ele>401.84183</ele><time>2025-12-19T23:06:42.000Z</time></trkpt>
        <trkpt lat="29.125211" lon="105.256889"><ele>401.00146</ele><time>2025-12-19T23:06:56.000Z</time></trkpt>
        <trkpt lat="29.125203" lon="105.256942"><ele>400.87076</ele><time>2025-12-19T23:07:02.000Z</time></trkpt>
        <trkpt lat="29.125198" lon="105.256999"><ele>400.13275</ele><time>2025-12-19T23:07:08.000Z</time></trkpt>
        <trkpt lat="29.1252" lon="105.257051"><ele>399.2451</ele><time>2025-12-19T23:07:13.000Z</time></trkpt>
        <trkpt lat="29.125197" lon="105.257106"><ele>397.99057</ele><time>2025-12-19T23:07:19.000Z</time></trkpt>
        <trkpt lat="29.125192" lon="105.257162"><ele>396.6573</ele><time>2025-12-19T23:07:26.000Z</time></trkpt>
        <trkpt lat="29.125179" lon="105.257215"><ele>395.39328</ele><time>2025-12-19T23:07:32.000Z</time></trkpt>
        <trkpt lat="29.125169" lon="105.257269"><ele>394.17624</ele><time>2025-12-19T23:07:38.000Z</time></trkpt>
        <trkpt lat="29.125161" lon="105.25732"><ele>392.24414</ele><time>2025-12-19T23:07:44.000Z</time></trkpt>
        <trkpt lat="29.125156" lon="105.257379"><ele>390.80905</ele><time>2025-12-19T23:07:50.000Z</time></trkpt>
        <trkpt lat="29.125146" lon="105.257436"><ele>389.41632</ele><time>2025-12-19T23:07:55.000Z</time></trkpt>
        <trkpt lat="29.12515" lon="105.257488"><ele>387.84476</ele><time>2025-12-19T23:08:00.000Z</time></trkpt>
        <trkpt lat="29.125145" lon="105.257541"><ele>386.7662</ele><time>2025-12-19T23:08:05.000Z</time></trkpt>
        <trkpt lat="29.125134" lon="105.257598"><ele>386.47867</ele><time>2025-12-19T23:08:11.000Z</time></trkpt>
        <trkpt lat="29.125125" lon="105.257654"><ele>386.56778</ele><time>2025-12-19T23:08:17.000Z</time></trkpt>
        <trkpt lat="29.125098" lon="105.257698"><ele>386.3074</ele><time>2025-12-19T23:08:26.000Z</time></trkpt>
        <trkpt lat="29.125051" lon="105.257697"><ele>386.25754</ele><time>2025-12-19T23:08:37.000Z</time></trkpt>
        <trkpt lat="29.125004" lon="105.257705"><ele>385.66058</ele><time>2025-12-19T23:08:43.000Z</time></trkpt>
        <trkpt lat="29.124958" lon="105.257722"><ele>385.39337</ele><time>2025-12-19T23:08:49.000Z</time></trkpt>
        <trkpt lat="29.124916" lon="105.257742"><ele>385.58493</ele><time>2025-12-19T23:08:55.000Z</time></trkpt>
        <trkpt lat="29.12487" lon="105.257761"><ele>386.36038</ele><time>2025-12-19T23:09:01.000Z</time></trkpt>
        <trkpt lat="29.124823" lon="105.257774"><ele>386.4922</ele><time>2025-12-19T23:09:07.000Z</time></trkpt>
        <trkpt lat="29.124817" lon="105.257723"><ele>387.0964</ele><time>2025-12-19T23:09:33.000Z</time></trkpt>
        <trkpt lat="29.124784" lon="105.257766"><ele>386.90665</ele><time>2025-12-19T23:09:38.000Z</time></trkpt>
        <trkpt lat="29.12474" lon="105.257799"><ele>387.95383</ele><time>2025-12-19T23:09:43.000Z</time></trkpt>
        <trkpt lat="29.124708" lon="105.257844"><ele>387.76074</ele><time>2025-12-19T23:09:48.000Z</time></trkpt>
        <trkpt lat="29.124662" lon="105.257852"><ele>389.42712</ele><time>2025-12-19T23:10:03.000Z</time></trkpt>
        <trkpt lat="29.124611" lon="105.257861"><ele>389.37592</ele><time>2025-12-19T23:10:13.000Z</time></trkpt>
        <trkpt lat="29.124559" lon="105.257887"><ele>389.8256</ele><time>2025-12-19T23:10:21.000Z</time></trkpt>
        <trkpt lat="29.124506" lon="105.257906"><ele>389.9071</ele><time>2025-12-19T23:10:27.000Z</time></trkpt>
        <trkpt lat="29.12445" lon="105.257914"><ele>389.9294</ele><time>2025-12-19T23:10:33.000Z</time></trkpt>
        <trkpt lat="29.124405" lon="105.257923"><ele>390.13565</ele><time>2025-12-19T23:10:39.000Z</time></trkpt>
        <trkpt lat="29.124383" lon="105.257972"><ele>389.89133</ele><time>2025-12-19T23:11:03.000Z</time></trkpt>
        <trkpt lat="29.124332" lon="105.257958"><ele>389.869</ele><time>2025-12-19T23:11:45.000Z</time></trkpt>
        <trkpt lat="29.124285" lon="105.257977"><ele>391.10382</ele><time>2025-12-19T23:11:50.000Z</time></trkpt>
        <trkpt lat="29.124249" lon="105.258013"><ele>391.3009</ele><time>2025-12-19T23:12:31.000Z</time></trkpt>
        <trkpt lat="29.124202" lon="105.258011"><ele>391.6716</ele><time>2025-12-19T23:12:39.000Z</time></trkpt>
        <trkpt lat="29.124152" lon="105.257998"><ele>392.36163</ele><time>2025-12-19T23:12:46.000Z</time></trkpt>
        <trkpt lat="29.124097" lon="105.257997"><ele>392.68988</ele><time>2025-12-19T23:12:53.000Z</time></trkpt>
        <trkpt lat="29.124048" lon="105.258017"><ele>392.90182</ele><time>2025-12-19T23:12:59.000Z</time></trkpt>
        <trkpt lat="29.124007" lon="105.258049"><ele>392.59964</ele><time>2025-12-19T23:13:04.000Z</time></trkpt>
        <trkpt lat="29.123965" lon="105.25809"><ele>391.6097</ele><time>2025-12-19T23:13:10.000Z</time></trkpt>
        <trkpt lat="29.123923" lon="105.258129"><ele>390.7085</ele><time>2025-12-19T23:13:17.000Z</time></trkpt>
        <trkpt lat="29.123889" lon="105.258166"><ele>389.57434</ele><time>2025-12-19T23:13:23.000Z</time></trkpt>
        <trkpt lat="29.123862" lon="105.258208"><ele>388.5434</ele><time>2025-12-19T23:13:30.000Z</time></trkpt>
        <trkpt lat="29.123834" lon="105.258257"><ele>388.27625</ele><time>2025-12-19T23:13:39.000Z</time></trkpt>
        <trkpt lat="29.123805" lon="105.258302"><ele>388.02344</ele><time>2025-12-19T23:13:46.000Z</time></trkpt>
        <trkpt lat="29.123772" lon="105.258344"><ele>387.42294</ele><time>2025-12-19T23:14:09.000Z</time></trkpt>
        <trkpt lat="29.123752" lon="105.258391"><ele>387.83322</ele><time>2025-12-19T23:14:16.000Z</time></trkpt>
        <trkpt lat="29.123722" lon="105.258442"><ele>388.22845</ele><time>2025-12-19T23:14:24.000Z</time></trkpt>
        <trkpt lat="29.123693" lon="105.258488"><ele>389.0805</ele><time>2025-12-19T23:14:30.000Z</time></trkpt>
        <trkpt lat="29.123669" lon="105.258535"><ele>388.8613</ele><time>2025-12-19T23:14:36.000Z</time></trkpt>
        <trkpt lat="29.123669" lon="105.258589"><ele>388.6063</ele><time>2025-12-19T23:14:43.000Z</time></trkpt>
        <trkpt lat="29.123648" lon="105.258639"><ele>388.53183</ele><time>2025-12-19T23:14:51.000Z</time></trkpt>
        <trkpt lat="29.123632" lon="105.258688"><ele>388.27798</ele><time>2025-12-19T23:14:59.000Z</time></trkpt>
        <trkpt lat="29.123622" lon="105.258742"><ele>389.1353</ele><time>2025-12-19T23:15:12.000Z</time></trkpt>
        <trkpt lat="29.123615" lon="105.258796"><ele>389.21747</ele><time>2025-12-19T23:15:54.000Z</time></trkpt>
        <trkpt lat="29.123601" lon="105.258847"><ele>389.5022</ele><time>2025-12-19T23:16:00.000Z</time></trkpt>
        <trkpt lat="29.123578" lon="105.258895"><ele>389.37717</ele><time>2025-12-19T23:16:07.000Z</time></trkpt>
        <trkpt lat="29.123568" lon="105.258946"><ele>388.48236</ele><time>2025-12-19T23:16:14.000Z</time></trkpt>
        <trkpt lat="29.123549" lon="105.259001"><ele>387.33435</ele><time>2025-12-19T23:16:21.000Z</time></trkpt>
        <trkpt lat="29.12352" lon="105.259046"><ele>385.98923</ele><time>2025-12-19T23:16:28.000Z</time></trkpt>
        <trkpt lat="29.123503" lon="105.259101"><ele>384.3953</ele><time>2025-12-19T23:16:34.000Z</time></trkpt>
        <trkpt lat="29.123481" lon="105.259151"><ele>382.339</ele><time>2025-12-19T23:16:41.000Z</time></trkpt>
        <trkpt lat="29.123478" lon="105.259211"><ele>381.6347</ele><time>2025-12-19T23:16:50.000Z</time></trkpt>
        <trkpt lat="29.123476" lon="105.259268"><ele>380.97574</ele><time>2025-12-19T23:16:58.000Z</time></trkpt>
        <trkpt lat="29.123481" lon="105.259323"><ele>380.56107</ele><time>2025-12-19T23:17:08.000Z</time></trkpt>
        <trkpt lat="29.123481" lon="105.259381"><ele>380.92627</ele><time>2025-12-19T23:17:15.000Z</time></trkpt>
        <trkpt lat="29.123485" lon="105.259437"><ele>381.01804</ele><time>2025-12-19T23:17:22.000Z</time></trkpt>
        <trkpt lat="29.123492" lon="105.25949"><ele>380.91257</ele><time>2025-12-19T23:17:28.000Z</time></trkpt>
        <trkpt lat="29.123504" lon="105.259544"><ele>380.94272</ele><time>2025-12-19T23:17:35.000Z</time></trkpt>
        <trkpt lat="29.123502" lon="105.259601"><ele>379.58395</ele><time>2025-12-19T23:18:02.000Z</time></trkpt>
        <trkpt lat="29.1235" lon="105.259653"><ele>379.819</ele><time>2025-12-19T23:18:09.000Z</time></trkpt>
        <trkpt lat="29.123494" lon="105.259709"><ele>379.51392</ele><time>2025-12-19T23:18:20.000Z</time></trkpt>
        <trkpt lat="29.123502" lon="105.259761"><ele>378.48145</ele><time>2025-12-19T23:18:34.000Z</time></trkpt>
        <trkpt lat="29.123509" lon="105.259812"><ele>378.74905</ele><time>2025-12-19T23:18:44.000Z</time></trkpt>
        <trkpt lat="29.123493" lon="105.259864"><ele>377.73462</ele><time>2025-12-19T23:19:08.000Z</time></trkpt>
        <trkpt lat="29.123499" lon="105.259918"><ele>377.60294</ele><time>2025-12-19T23:19:21.000Z</time></trkpt>
        <trkpt lat="29.123497" lon="105.259973"><ele>377.48672</ele><time>2025-12-19T23:19:28.000Z</time></trkpt>
        <trkpt lat="29.1235" lon="105.260031"><ele>377.26645</ele><time>2025-12-19T23:19:37.000Z</time></trkpt>
        <trkpt lat="29.123482" lon="105.260083"><ele>376.7343</ele><time>2025-12-19T23:19:44.000Z</time></trkpt>
        <trkpt lat="29.123476" lon="105.260136"><ele>376.12088</ele><time>2025-12-19T23:19:51.000Z</time></trkpt>
        <trkpt lat="29.12347" lon="105.260191"><ele>375.20358</ele><time>2025-12-19T23:19:57.000Z</time></trkpt>
        <trkpt lat="29.123467" lon="105.260251"><ele>375.00726</ele><time>2025-12-19T23:20:03.000Z</time></trkpt>
        <trkpt lat="29.123493" lon="105.260297"><ele>376.16638</ele><time>2025-12-19T23:20:28.000Z</time></trkpt>
        <trkpt lat="29.123483" lon="105.260355"><ele>375.37885</ele><time>2025-12-19T23:20:35.000Z</time></trkpt>
        <trkpt lat="29.123491" lon="105.260417"><ele>374.87073</ele><time>2025-12-19T23:20:41.000Z</time></trkpt>
        <trkpt lat="29.123484" lon="105.260471"><ele>374.75726</ele><time>2025-12-19T23:20:46.000Z</time></trkpt>
        <trkpt lat="29.123491" lon="105.260523"><ele>374.33127</ele><time>2025-12-19T23:20:51.000Z</time></trkpt>
        <trkpt lat="29.123483" lon="105.260576"><ele>373.78885</ele><time>2025-12-19T23:20:57.000Z</time></trkpt>
        <trkpt lat="29.12349" lon="105.260628"><ele>373.4576</ele><time>2025-12-19T23:21:04.000Z</time></trkpt>
        <trkpt lat="29.123493" lon="105.260683"><ele>373.6277</ele><time>2025-12-19T23:21:08.000Z</time></trkpt>
        <trkpt lat="29.123498" lon="105.26074"><ele>372.9183</ele><time>2025-12-19T23:21:15.000Z</time></trkpt>
        <trkpt lat="29.123503" lon="105.260796"><ele>372.2024</ele><time>2025-12-19T23:21:22.000Z</time></trkpt>
        <trkpt lat="29.123492" lon="105.260857"><ele>371.87958</ele><time>2025-12-19T23:21:29.000Z</time></trkpt>
        <trkpt lat="29.123478" lon="105.260913"><ele>371.31104</ele><time>2025-12-19T23:21:35.000Z</time></trkpt>
        <trkpt lat="29.12347" lon="105.260966"><ele>370.89417</ele><time>2025-12-19T23:21:41.000Z</time></trkpt>
        <trkpt lat="29.123447" lon="105.261019"><ele>370.6342</ele><time>2025-12-19T23:21:47.000Z</time></trkpt>
        <trkpt lat="29.123428" lon="105.26107"><ele>369.26074</ele><time>2025-12-19T23:21:53.000Z</time></trkpt>
        <trkpt lat="29.123412" lon="105.261128"><ele>368.39233</ele><time>2025-12-19T23:21:59.000Z</time></trkpt>
        <trkpt lat="29.123393" lon="105.261178"><ele>367.35922</ele><time>2025-12-19T23:22:05.000Z</time></trkpt>
        <trkpt lat="29.123374" lon="105.261225"><ele>367.29694</ele><time>2025-12-19T23:22:10.000Z</time></trkpt>
        <trkpt lat="29.123362" lon="105.261283"><ele>366.61926</ele><time>2025-12-19T23:22:15.000Z</time></trkpt>
        <trkpt lat="29.123349" lon="105.261342"><ele>366.74094</ele><time>2025-12-19T23:22:21.000Z</time></trkpt>
        <trkpt lat="29.123311" lon="105.261304"><ele>365.5222</ele><time>2025-12-19T23:22:33.000Z</time></trkpt>
        <trkpt lat="29.123312" lon="105.261251"><ele>364.75937</ele><time>2025-12-19T23:22:38.000Z</time></trkpt>
        <trkpt lat="29.123306" lon="105.261198"><ele>363.86874</ele><time>2025-12-19T23:22:43.000Z</time></trkpt>
        <trkpt lat="29.1233" lon="105.261137"><ele>362.90256</ele><time>2025-12-19T23:22:48.000Z</time></trkpt>
        <trkpt lat="29.12328" lon="105.261082"><ele>362.22287</ele><time>2025-12-19T23:22:53.000Z</time></trkpt>
        <trkpt lat="29.123252" lon="105.261034"><ele>361.53665</ele><time>2025-12-19T23:22:58.000Z</time></trkpt>
        <trkpt lat="29.123214" lon="105.260995"><ele>361.24875</ele><time>2025-12-19T23:23:04.000Z</time></trkpt>
        <trkpt lat="29.12318" lon="105.26096"><ele>360.79425</ele><time>2025-12-19T23:23:11.000Z</time></trkpt>
        <trkpt lat="29.123136" lon="105.260942"><ele>360.1565</ele><time>2025-12-19T23:23:16.000Z</time></trkpt>
        <trkpt lat="29.123085" lon="105.260936"><ele>359.34625</ele><time>2025-12-19T23:23:22.000Z</time></trkpt>
        <trkpt lat="29.123031" lon="105.260931"><ele>358.2795</ele><time>2025-12-19T23:23:28.000Z</time></trkpt>
        <trkpt lat="29.122984" lon="105.260929"><ele>358.2323</ele><time>2025-12-19T23:23:34.000Z</time></trkpt>
        <trkpt lat="29.122933" lon="105.260936"><ele>358.68585</ele><time>2025-12-19T23:23:39.000Z</time></trkpt>
        <trkpt lat="29.122883" lon="105.26094"><ele>359.4888</ele><time>2025-12-19T23:23:45.000Z</time></trkpt>
        <trkpt lat="29.12283" lon="105.260951"><ele>360.09113</ele><time>2025-12-19T23:23:50.000Z</time></trkpt>
        <trkpt lat="29.122787" lon="105.260923"><ele>361.05905</ele><time>2025-12-19T23:24:03.000Z</time></trkpt>
        <trkpt lat="29.122843" lon="105.26096"><ele>361.18198</ele><time>2025-12-19T23:24:15.000Z</time></trkpt>
        <trkpt lat="29.122786" lon="105.260955"><ele>360.6886</ele><time>2025-12-19T23:24:21.000Z</time></trkpt>
        <trkpt lat="29.12274" lon="105.260955"><ele>361.08765</ele><time>2025-12-19T23:24:25.000Z</time></trkpt>
        <trkpt lat="29.122692" lon="105.260946"><ele>361.22214</ele><time>2025-12-19T23:24:30.000Z</time></trkpt>
        <trkpt lat="29.122644" lon="105.260953"><ele>361.6514</ele><time>2025-12-19T23:24:35.000Z</time></trkpt>
        <trkpt lat="29.122594" lon="105.260956"><ele>362.05444</ele><time>2025-12-19T23:24:40.000Z</time></trkpt>
        <trkpt lat="29.122544" lon="105.260964"><ele>362.28537</ele><time>2025-12-19T23:24:45.000Z</time></trkpt>
        <trkpt lat="29.122493" lon="105.26098"><ele>362.33298</ele><time>2025-12-19T23:24:50.000Z</time></trkpt>
        <trkpt lat="29.12244" lon="105.260995"><ele>362.5118</ele><time>2025-12-19T23:24:57.000Z</time></trkpt>
        <trkpt lat="29.122394" lon="105.261013"><ele>362.91098</ele><time>2025-12-19T23:25:02.000Z</time></trkpt>
        <trkpt lat="29.122349" lon="105.261025"><ele>363.39655</ele><time>2025-12-19T23:25:07.000Z</time></trkpt>
        <trkpt lat="29.122304" lon="105.261039"><ele>364.41296</ele><time>2025-12-19T23:25:13.000Z</time></trkpt>
        <trkpt lat="29.122263" lon="105.261062"><ele>364.45663</ele><time>2025-12-19T23:25:19.000Z</time></trkpt>
        <trkpt lat="29.122213" lon="105.261079"><ele>365.5958</ele><time>2025-12-19T23:25:26.000Z</time></trkpt>
        <trkpt lat="29.122168" lon="105.261106"><ele>367.1344</ele><time>2025-12-19T23:25:33.000Z</time></trkpt>
        <trkpt lat="29.122131" lon="105.261148"><ele>367.7986</ele><time>2025-12-19T23:25:39.000Z</time></trkpt>
        <trkpt lat="29.122106" lon="105.261195"><ele>368.44052</ele><time>2025-12-19T23:25:46.000Z</time></trkpt>
        <trkpt lat="29.122104" lon="105.261249"><ele>367.58698</ele><time>2025-12-19T23:25:54.000Z</time></trkpt>
        <trkpt lat="29.122055" lon="105.261262"><ele>367.7017</ele><time>2025-12-19T23:26:12.000Z</time></trkpt>
        <trkpt lat="29.122018" lon="105.261312"><ele>368.6992</ele><time>2025-12-19T23:26:19.000Z</time></trkpt>
        <trkpt lat="29.121988" lon="105.261361"><ele>369.03125</ele><time>2025-12-19T23:26:25.000Z</time></trkpt>
        <trkpt lat="29.121956" lon="105.261399"><ele>369.04764</ele><time>2025-12-19T23:26:32.000Z</time></trkpt>
        <trkpt lat="29.121928" lon="105.261441"><ele>369.44052</ele><time>2025-12-19T23:26:40.000Z</time></trkpt>
        <trkpt lat="29.121889" lon="105.261481"><ele>369.09763</ele><time>2025-12-19T23:26:46.000Z</time></trkpt>
        <trkpt lat="29.121849" lon="105.26152"><ele>368.66998</ele><time>2025-12-19T23:26:52.000Z</time></trkpt>
        <trkpt lat="29.121803" lon="105.261547"><ele>368.8451</ele><time>2025-12-19T23:26:58.000Z</time></trkpt>
        <trkpt lat="29.121764" lon="105.261588"><ele>368.21445</ele><time>2025-12-19T23:27:04.000Z</time></trkpt>
        <trkpt lat="29.121726" lon="105.261619"><ele>368.3365</ele><time>2025-12-19T23:27:09.000Z</time></trkpt>
        <trkpt lat="29.121692" lon="105.261658"><ele>367.93768</ele><time>2025-12-19T23:27:15.000Z</time></trkpt>
        <trkpt lat="29.121655" lon="105.261692"><ele>367.9237</ele><time>2025-12-19T23:27:20.000Z</time></trkpt>
        <trkpt lat="29.121616" lon="105.261725"><ele>368.0224</ele><time>2025-12-19T23:27:26.000Z</time></trkpt>
        <trkpt lat="29.121577" lon="105.261761"><ele>368.37802</ele><time>2025-12-19T23:27:33.000Z</time></trkpt>
        <trkpt lat="29.121531" lon="105.261788"><ele>368.86795</ele><time>2025-12-19T23:27:39.000Z</time></trkpt>
        <trkpt lat="29.121496" lon="105.261831"><ele>369.71567</ele><time>2025-12-19T23:27:45.000Z</time></trkpt>
        <trkpt lat="29.12146" lon="105.261862"><ele>369.865</ele><time>2025-12-19T23:27:51.000Z</time></trkpt>
        <trkpt lat="29.121414" lon="105.261882"><ele>370.4834</ele><time>2025-12-19T23:27:57.000Z</time></trkpt>
        <trkpt lat="29.121369" lon="105.261901"><ele>371.47427</ele><time>2025-12-19T23:28:03.000Z</time></trkpt>
        <trkpt lat="29.121325" lon="105.261914"><ele>371.7261</ele><time>2025-12-19T23:28:09.000Z</time></trkpt>
        <trkpt lat="29.121278" lon="105.261915"><ele>372.95135</ele><time>2025-12-19T23:28:15.000Z</time></trkpt>
        <trkpt lat="29.121225" lon="105.261916"><ele>374.05505</ele><time>2025-12-19T23:28:21.000Z</time></trkpt>
        <trkpt lat="29.121178" lon="105.261916"><ele>375.26538</ele><time>2025-12-19T23:28:27.000Z</time></trkpt>
        <trkpt lat="29.121129" lon="105.261908"><ele>376.7408</ele><time>2025-12-19T23:28:41.000Z</time></trkpt>
        <trkpt lat="29.121085" lon="105.261893"><ele>377.37238</ele><time>2025-12-19T23:28:48.000Z</time></trkpt>
        <trkpt lat="29.121042" lon="105.261872"><ele>377.40503</ele><time>2025-12-19T23:28:53.000Z</time></trkpt>
        <trkpt lat="29.121006" lon="105.26184"><ele>377.5748</ele><time>2025-12-19T23:29:01.000Z</time></trkpt>
        <trkpt lat="29.12104" lon="105.261885"><ele>377.25092</ele><time>2025-12-19T23:29:27.000Z</time></trkpt>
        <trkpt lat="29.121085" lon="105.261883"><ele>377.39404</ele><time>2025-12-19T23:30:49.000Z</time></trkpt>
        <trkpt lat="29.12107" lon="105.261934"><ele>376.7448</ele><time>2025-12-19T23:31:12.000Z</time></trkpt>
        <trkpt lat="29.12103" lon="105.261906"><ele>376.2522</ele><time>2025-12-19T23:31:58.000Z</time></trkpt>
        <trkpt lat="29.121074" lon="105.26187"><ele>376.92624</ele><time>2025-12-19T23:32:56.000Z</time></trkpt>
        <trkpt lat="29.121048" lon="105.261824"><ele>378.587</ele><time>2025-12-19T23:33:20.000Z</time></trkpt>
        <trkpt lat="29.120992" lon="105.261864"><ele>378.04385</ele><time>2025-12-19T23:33:25.000Z</time></trkpt>
        <trkpt lat="29.120944" lon="105.26189"><ele>377.32855</ele><time>2025-12-19T23:33:27.000Z</time></trkpt>
        <trkpt lat="29.120885" lon="105.261887"><ele>376.33905</ele><time>2025-12-19T23:33:29.000Z</time></trkpt>
        <trkpt lat="29.120802" lon="105.261864"><ele>375.29123</ele><time>2025-12-19T23:33:31.000Z</time></trkpt>
        <trkpt lat="29.120753" lon="105.261844"><ele>375.45343</ele><time>2025-12-19T23:33:32.000Z</time></trkpt>
        <trkpt lat="29.120712" lon="105.26182"><ele>374.7065</ele><time>2025-12-19T23:33:33.000Z</time></trkpt>
        <trkpt lat="29.120667" lon="105.261806"><ele>374.76617</ele><time>2025-12-19T23:33:34.000Z</time></trkpt>
        <trkpt lat="29.120588" lon="105.261769"><ele>374.96597</ele><time>2025-12-19T23:33:36.000Z</time></trkpt>
        <trkpt lat="29.120542" lon="105.26175"><ele>374.88437</ele><time>2025-12-19T23:33:37.000Z</time></trkpt>
        <trkpt lat="29.120496" lon="105.261729"><ele>374.5254</ele><time>2025-12-19T23:33:38.000Z</time></trkpt>
        <trkpt lat="29.120443" lon="105.261702"><ele>374.28552</ele><time>2025-12-19T23:33:39.000Z</time></trkpt>
        <trkpt lat="29.120358" lon="105.261642"><ele>374.3392</ele><time>2025-12-19T23:33:41.000Z</time></trkpt>
        <trkpt lat="29.120308" lon="105.261607"><ele>374.47855</ele><time>2025-12-19T23:33:42.000Z</time></trkpt>
        <trkpt lat="29.120262" lon="105.261568"><ele>374.92392</ele><time>2025-12-19T23:33:43.000Z</time></trkpt>
        <trkpt lat="29.120221" lon="105.261537"><ele>373.97797</ele><time>2025-12-19T23:33:44.000Z</time></trkpt>
        <trkpt lat="29.120178" lon="105.261497"><ele>374.38498</ele><time>2025-12-19T23:33:45.000Z</time></trkpt>
        <trkpt lat="29.12013" lon="105.261461"><ele>374.60596</ele><time>2025-12-19T23:33:46.000Z</time></trkpt>
        <trkpt lat="29.120081" lon="105.26143"><ele>373.64954</ele><time>2025-12-19T23:33:47.000Z</time></trkpt>
        <trkpt lat="29.120039" lon="105.261398"><ele>373.68753</ele><time>2025-12-19T23:33:48.000Z</time></trkpt>
        <trkpt lat="29.120001" lon="105.261362"><ele>374.02695</ele><time>2025-12-19T23:33:49.000Z</time></trkpt>
        <trkpt lat="29.11994" lon="105.261299"><ele>373.18524</ele><time>2025-12-19T23:33:51.000Z</time></trkpt>
        <trkpt lat="29.11992" lon="105.26125"><ele>372.44562</ele><time>2025-12-19T23:33:52.000Z</time></trkpt>
        <trkpt lat="29.119867" lon="105.261176"><ele>370.96967</ele><time>2025-12-19T23:33:54.000Z</time></trkpt>
        <trkpt lat="29.119822" lon="105.2611"><ele>369.83142</ele><time>2025-12-19T23:33:56.000Z</time></trkpt>
        <trkpt lat="29.119789" lon="105.260991"><ele>368.14584</ele><time>2025-12-19T23:33:58.000Z</time></trkpt>
        <trkpt lat="29.119781" lon="105.260938"><ele>367.24957</ele><time>2025-12-19T23:33:59.000Z</time></trkpt>
        <trkpt lat="29.119797" lon="105.260837"><ele>365.7724</ele><time>2025-12-19T23:34:01.000Z</time></trkpt>
        <trkpt lat="29.119815" lon="105.260779"><ele>364.70596</ele><time>2025-12-19T23:34:02.000Z</time></trkpt>
        <trkpt lat="29.119838" lon="105.260716"><ele>364.51688</ele><time>2025-12-19T23:34:03.000Z</time></trkpt>
        <trkpt lat="29.119855" lon="105.260646"><ele>364.30038</ele><time>2025-12-19T23:34:04.000Z</time></trkpt>
        <trkpt lat="29.11987" lon="105.26058"><ele>364.01263</ele><time>2025-12-19T23:34:05.000Z</time></trkpt>
        <trkpt lat="29.119885" lon="105.260512"><ele>364.50455</ele><time>2025-12-19T23:34:06.000Z</time></trkpt>
        <trkpt lat="29.119896" lon="105.260443"><ele>364.82053</ele><time>2025-12-19T23:34:07.000Z</time></trkpt>
        <trkpt lat="29.119907" lon="105.260372"><ele>365.1588</ele><time>2025-12-19T23:34:08.000Z</time></trkpt>
        <trkpt lat="29.119914" lon="105.260298"><ele>365.2861</ele><time>2025-12-19T23:34:09.000Z</time></trkpt>
        <trkpt lat="29.11993" lon="105.260233"><ele>366.2955</ele><time>2025-12-19T23:34:10.000Z</time></trkpt>
        <trkpt lat="29.119938" lon="105.260162"><ele>367.12418</ele><time>2025-12-19T23:34:11.000Z</time></trkpt>
        <trkpt lat="29.119937" lon="105.260099"><ele>367.7518</ele><time>2025-12-19T23:34:12.000Z</time></trkpt>
        <trkpt lat="29.119926" lon="105.260042"><ele>367.81836</ele><time>2025-12-19T23:34:13.000Z</time></trkpt>
        <trkpt lat="29.119907" lon="105.259985"><ele>367.50186</ele><time>2025-12-19T23:34:14.000Z</time></trkpt>
        <trkpt lat="29.119877" lon="105.259934"><ele>367.7628</ele><time>2025-12-19T23:34:15.000Z</time></trkpt>
        <trkpt lat="29.119836" lon="105.259886"><ele>367.16333</ele><time>2025-12-19T23:34:16.000Z</time></trkpt>
        <trkpt lat="29.119778" lon="105.259852"><ele>367.83267</ele><time>2025-12-19T23:34:17.000Z</time></trkpt>
        <trkpt lat="29.119713" lon="105.259844"><ele>367.91574</ele><time>2025-12-19T23:34:18.000Z</time></trkpt>
        <trkpt lat="29.119657" lon="105.259854"><ele>367.95657</ele><time>2025-12-19T23:34:19.000Z</time></trkpt>
        <trkpt lat="29.119603" lon="105.259874"><ele>368.06915</ele><time>2025-12-19T23:34:20.000Z</time></trkpt>
        <trkpt lat="29.119553" lon="105.25989"><ele>368.60837</ele><time>2025-12-19T23:34:21.000Z</time></trkpt>
        <trkpt lat="29.119488" lon="105.259916"><ele>369.17438</ele><time>2025-12-19T23:34:22.000Z</time></trkpt>
        <trkpt lat="29.119417" lon="105.259943"><ele>369.97623</ele><time>2025-12-19T23:34:24.000Z</time></trkpt>
        <trkpt lat="29.119373" lon="105.259969"><ele>370.13202</ele><time>2025-12-19T23:34:27.000Z</time></trkpt>
      </trkseg>
  </trk>
</gpx>